BEL5RH EBBR-HKJK
Flight info
| Callsign | BEL5RH |
|---|---|
| Flight time | N/A |
| Altitude | 37000 |
| Route | ROUSY4M ROUSY DCT GTQ DCT POGOL DCT LASAT DCT MOROK DCT GILIR DCT GEVEA DCT KOGAS DCT VEVAR DCT BARSO DCT KOLON DCT RARQU DCT NESUL DCT ETOIL DCT CIRTA UM2 DJA UB730 DIR UG862 BUN UT325 SIPKI UW325 NN UL433 NAKAT NAKAT4A |
| Aircraft | A333/H-SDE3GHIJ2J3J5M1RVWXY/LB2D1 |
Departure
| Time | 2026-05-06 09:33 |
|---|---|
| Airport | Brussels Airport (EBBR) |
Arrival
| Time | N/A |
|---|---|
| Airport | Jomo Kenyatta International Airport (HKJK) |
| Time | Latitude | Longitude | Altitude | Speed | Heading |
|---|---|---|---|---|---|
| 2026-05-06 09:33 | 50.74508 | 4.28786 | 10345 ft | 297 kts | 96° |
| 2026-05-06 09:33 | 50.74388 | 4.32128 | 10786 ft | 313 kts | 91° |
| 2026-05-06 09:33 | 50.74038 | 4.35601 | 11106 ft | 330 kts | 107° |
| 2026-05-06 09:33 | 50.72911 | 4.38844 | 11333 ft | 347 kts | 129° |
| 2026-05-06 09:34 | 50.71174 | 4.41608 | 11548 ft | 363 kts | 137° |
| 2026-05-06 09:34 | 50.69253 | 4.44292 | 11833 ft | 374 kts | 138° |
| 2026-05-06 09:34 | 50.67266 | 4.47027 | 12221 ft | 383 kts | 137° |
| 2026-05-06 09:34 | 50.65258 | 4.49812 | 12783 ft | 385 kts | 137° |
| 2026-05-06 09:35 | 50.63254 | 4.52633 | 13346 ft | 388 kts | 136° |
| 2026-05-06 09:35 | 50.61232 | 4.55495 | 13837 ft | 393 kts | 136° |
| 2026-05-06 09:35 | 50.59192 | 4.58382 | 14307 ft | 396 kts | 136° |
| 2026-05-06 09:35 | 50.57134 | 4.61296 | 14771 ft | 400 kts | 137° |
| 2026-05-06 09:36 | 50.55059 | 4.64229 | 15419 ft | 401 kts | 138° |
| 2026-05-06 09:36 | 50.52993 | 4.67148 | 16137 ft | 399 kts | 139° |
| 2026-05-06 09:36 | 50.50915 | 4.70081 | 16603 ft | 405 kts | 138° |
| 2026-05-06 09:36 | 50.48807 | 4.73053 | 17069 ft | 410 kts | 138° |
| 2026-05-06 09:37 | 50.46678 | 4.76050 | 17547 ft | 412 kts | 138° |
| 2026-05-06 09:37 | 50.44536 | 4.79063 | 18003 ft | 415 kts | 139° |
| 2026-05-06 09:37 | 50.42373 | 4.82102 | 18361 ft | 420 kts | 139° |
| 2026-05-06 09:37 | 50.40189 | 4.85166 | 18736 ft | 422 kts | 139° |
| 2026-05-06 09:38 | 50.37994 | 4.88241 | 19127 ft | 425 kts | 138° |
| 2026-05-06 09:38 | 50.35788 | 4.91327 | 19573 ft | 425 kts | 138° |
| 2026-05-06 09:38 | 50.33574 | 4.94422 | 19922 ft | 429 kts | 138° |
| 2026-05-06 09:38 | 50.31338 | 4.97542 | 20304 ft | 431 kts | 138° |
| 2026-05-06 09:39 | 50.29099 | 5.00664 | 20746 ft | 432 kts | 139° |
| 2026-05-06 09:39 | 50.26848 | 5.03796 | 21100 ft | 434 kts | 139° |
| 2026-05-06 09:39 | 50.24588 | 5.06937 | 21519 ft | 435 kts | 139° |
| 2026-05-06 09:39 | 50.22328 | 5.10073 | 22028 ft | 434 kts | 139° |
| 2026-05-06 09:40 | 50.20061 | 5.13215 | 22360 ft | 437 kts | 139° |
| 2026-05-06 09:40 | 50.17778 | 5.16376 | 22682 ft | 441 kts | 139° |
| 2026-05-06 09:40 | 50.13160 | 5.22758 | 23380 ft | 446 kts | 139° |
| 2026-05-06 09:41 | 50.10864 | 5.25924 | 23681 ft | 448 kts | 139° |
| 2026-05-06 09:41 | 50.08526 | 5.29144 | 23986 ft | 449 kts | 138° |
| 2026-05-06 09:41 | 50.06179 | 5.32372 | 24295 ft | 451 kts | 139° |
| 2026-05-06 09:41 | 50.03821 | 5.35611 | 24569 ft | 454 kts | 138° |
| 2026-05-06 09:42 | 50.01446 | 5.38868 | 24885 ft | 455 kts | 138° |
| 2026-05-06 09:42 | 49.99066 | 5.42127 | 25220 ft | 456 kts | 138° |
| 2026-05-06 09:42 | 49.96680 | 5.45391 | 25536 ft | 458 kts | 138° |
| 2026-05-06 09:42 | 49.94290 | 5.48656 | 25867 ft | 458 kts | 140° |
| 2026-05-06 09:43 | 49.91891 | 5.51926 | 26190 ft | 460 kts | 140° |
| 2026-05-06 09:43 | 49.89484 | 5.55204 | 26487 ft | 461 kts | 140° |
| 2026-05-06 09:43 | 49.87067 | 5.58492 | 26792 ft | 463 kts | 140° |
| 2026-05-06 09:43 | 49.84636 | 5.61793 | 27044 ft | 466 kts | 140° |
| 2026-05-06 09:44 | 49.82198 | 5.65102 | 27339 ft | 467 kts | 141° |
| 2026-05-06 09:44 | 49.79748 | 5.68420 | 27641 ft | 468 kts | 142° |
| 2026-05-06 09:44 | 49.77290 | 5.71743 | 27912 ft | 470 kts | 142° |
| 2026-05-06 09:44 | 49.74826 | 5.75071 | 28184 ft | 472 kts | 142° |
| 2026-05-06 09:45 | 49.72346 | 5.78416 | 28422 ft | 474 kts | 142° |
| 2026-05-06 09:45 | 49.69860 | 5.81764 | 28750 ft | 474 kts | 142° |
| 2026-05-06 09:45 | 49.67377 | 5.85105 | 29132 ft | 473 kts | 142° |
| 2026-05-06 09:45 | 49.64902 | 5.88430 | 29608 ft | 470 kts | 143° |
| 2026-05-06 09:46 | 49.62443 | 5.91730 | 30052 ft | 467 kts | 143° |
| 2026-05-06 09:46 | 49.59993 | 5.95012 | 30342 ft | 467 kts | 143° |
| 2026-05-06 09:46 | 49.57548 | 5.98283 | 30765 ft | 462 kts | 142° |
| 2026-05-06 09:46 | 49.55131 | 6.01512 | 31240 ft | 458 kts | 142° |
| 2026-05-06 09:47 | 49.52717 | 6.04731 | 31480 ft | 459 kts | 142° |
| 2026-05-06 09:47 | 49.50299 | 6.07950 | 31700 ft | 461 kts | 142° |
| 2026-05-06 09:47 | 49.47870 | 6.11175 | 31948 ft | 461 kts | 142° |
| 2026-05-06 09:47 | 49.45413 | 6.14335 | 32205 ft | 460 kts | 143° |
| 2026-05-06 09:48 | 49.42961 | 6.17399 | 32458 ft | 460 kts | 144° |
| 2026-05-06 09:48 | 49.40468 | 6.20473 | 32717 ft | 460 kts | 144° |
| 2026-05-06 09:48 | 49.37969 | 6.23537 | 32956 ft | 460 kts | 144° |
| 2026-05-06 09:48 | 49.35471 | 6.26599 | 33300 ft | 457 kts | 144° |
| 2026-05-06 09:49 | 49.33010 | 6.29622 | 33862 ft | 450 kts | 144° |
| 2026-05-06 09:49 | 49.30571 | 6.32621 | 34068 ft | 450 kts | 144° |
| 2026-05-06 09:49 | 49.25666 | 6.38646 | 34304 ft | 454 kts | 144° |
| 2026-05-06 09:50 | 49.23202 | 6.41670 | 34458 ft | 454 kts | 144° |
| 2026-05-06 09:50 | 49.20739 | 6.44691 | 34623 ft | 455 kts | 144° |
| 2026-05-06 09:50 | 49.18268 | 6.47718 | 34784 ft | 455 kts | 144° |
| 2026-05-06 09:50 | 49.15796 | 6.50742 | 34931 ft | 455 kts | 144° |
| 2026-05-06 09:51 | 49.13323 | 6.53764 | 35080 ft | 456 kts | 144° |
| 2026-05-06 09:51 | 49.10844 | 6.56788 | 35251 ft | 456 kts | 144° |
| 2026-05-06 09:51 | 49.08368 | 6.59805 | 35441 ft | 455 kts | 144° |
| 2026-05-06 09:51 | 49.05891 | 6.62818 | 35554 ft | 456 kts | 144° |
| 2026-05-06 09:52 | 49.03353 | 6.65705 | 35689 ft | 455 kts | 149° |
| 2026-05-06 09:52 | 49.00619 | 6.68109 | 35806 ft | 452 kts | 157° |
| 2026-05-06 09:52 | 48.97715 | 6.69897 | 35939 ft | 450 kts | 165° |
| 2026-05-06 09:52 | 48.94675 | 6.70995 | 36069 ft | 448 kts | 173° |
| 2026-05-06 09:53 | 48.91578 | 6.71379 | 36189 ft | 447 kts | 180° |
| 2026-05-06 09:53 | 48.88469 | 6.71400 | 36322 ft | 447 kts | 182° |
| 2026-05-06 09:53 | 48.82236 | 6.71121 | 36493 ft | 449 kts | 184° |
| 2026-05-06 09:54 | 48.79110 | 6.70942 | 36624 ft | 449 kts | 184° |
| 2026-05-06 09:54 | 48.75988 | 6.70775 | 36767 ft | 449 kts | 183° |
| 2026-05-06 09:54 | 48.69718 | 6.70484 | 36802 ft | 451 kts | 183° |
| 2026-05-06 09:55 | 48.63448 | 6.70234 | 36799 ft | 450 kts | 183° |
| 2026-05-06 09:55 | 48.57181 | 6.69996 | 36799 ft | 450 kts | 183° |
| 2026-05-06 09:56 | 48.50958 | 6.69758 | 36800 ft | 450 kts | 183° |
| 2026-05-06 09:56 | 48.44694 | 6.69517 | 36798 ft | 450 kts | 183° |
| 2026-05-06 09:57 | 48.38430 | 6.69275 | 36802 ft | 450 kts | 183° |
| 2026-05-06 09:57 | 48.32166 | 6.69034 | 36807 ft | 450 kts | 183° |
| 2026-05-06 09:58 | 48.25901 | 6.68794 | 36810 ft | 450 kts | 183° |
| 2026-05-06 09:58 | 48.19642 | 6.68554 | 36813 ft | 449 kts | 183° |
| 2026-05-06 09:59 | 48.13400 | 6.68315 | 36812 ft | 449 kts | 183° |
| 2026-05-06 09:59 | 48.07163 | 6.68077 | 36813 ft | 448 kts | 183° |
| 2026-05-06 10:00 | 48.01975 | 6.67881 | 36827 ft | 448 kts | 183° |
| 2026-05-06 10:00 | 47.95743 | 6.67645 | 36815 ft | 447 kts | 183° |
| 2026-05-06 10:01 | 47.89523 | 6.67410 | 36818 ft | 447 kts | 183° |
| 2026-05-06 10:01 | 47.83300 | 6.67176 | 36823 ft | 447 kts | 183° |
| 2026-05-06 10:02 | 47.77087 | 6.66943 | 36832 ft | 445 kts | 183° |
| 2026-05-06 10:02 | 47.70909 | 6.66712 | 36829 ft | 444 kts | 183° |
| 2026-05-06 10:03 | 47.64735 | 6.66480 | 36818 ft | 444 kts | 183° |
| 2026-05-06 10:03 | 47.58563 | 6.66248 | 36830 ft | 443 kts | 183° |
| 2026-05-06 10:04 | 47.52404 | 6.66019 | 36822 ft | 442 kts | 183° |
| 2026-05-06 10:04 | 47.46256 | 6.65755 | 36828 ft | 441 kts | 186° |
| 2026-05-06 10:05 | 47.40273 | 6.63979 | 36830 ft | 438 kts | 201° |
| 2026-05-06 10:05 | 47.34959 | 6.59646 | 36837 ft | 439 kts | 216° |
| 2026-05-06 10:06 | 47.30227 | 6.53940 | 36836 ft | 441 kts | 219° |
| 2026-05-06 10:06 | 47.25596 | 6.48016 | 36842 ft | 441 kts | 220° |
| 2026-05-06 10:07 | 47.20954 | 6.42117 | 36845 ft | 441 kts | 219° |
| 2026-05-06 10:07 | 47.16283 | 6.36266 | 36847 ft | 441 kts | 219° |
| 2026-05-06 10:08 | 47.11596 | 6.30439 | 36852 ft | 442 kts | 219° |
| 2026-05-06 10:08 | 47.06456 | 6.25574 | 36847 ft | 440 kts | 204° |
| 2026-05-06 10:09 | 47.00624 | 6.23141 | 36854 ft | 441 kts | 189° |
| 2026-05-06 10:09 | 46.94468 | 6.22148 | 36863 ft | 443 kts | 187° |
| 2026-05-06 10:10 | 46.88321 | 6.21419 | 36862 ft | 443 kts | 186° |
| 2026-05-06 10:10 | 46.82220 | 6.20679 | 36863 ft | 443 kts | 187° |
| 2026-05-06 10:11 | 46.76080 | 6.19886 | 36868 ft | 442 kts | 187° |
| 2026-05-06 10:11 | 46.69954 | 6.19074 | 36870 ft | 442 kts | 187° |
| 2026-05-06 10:12 | 46.63836 | 6.18263 | 36870 ft | 442 kts | 187° |
| 2026-05-06 10:12 | 46.57709 | 6.17452 | 36871 ft | 442 kts | 187° |
| 2026-05-06 10:13 | 46.51588 | 6.16645 | 36876 ft | 442 kts | 187° |
| 2026-05-06 10:13 | 46.45466 | 6.15841 | 36881 ft | 442 kts | 187° |
| 2026-05-06 10:14 | 46.39341 | 6.15039 | 36900 ft | 442 kts | 187° |
| 2026-05-06 10:14 | 46.33223 | 6.14240 | 36910 ft | 441 kts | 187° |
| 2026-05-06 10:15 | 46.27093 | 6.13866 | 36911 ft | 443 kts | 178° |
| 2026-05-06 10:15 | 46.21041 | 6.15765 | 36912 ft | 450 kts | 164° |
| 2026-05-06 10:16 | 46.15175 | 6.19008 | 36909 ft | 452 kts | 161° |
| 2026-05-06 10:16 | 46.09363 | 6.22481 | 36906 ft | 452 kts | 161° |
| 2026-05-06 10:17 | 46.03542 | 6.25936 | 36928 ft | 452 kts | 161° |
| 2026-05-06 10:17 | 45.97755 | 6.29314 | 36927 ft | 452 kts | 162° |
| 2026-05-06 10:18 | 45.91922 | 6.32687 | 36901 ft | 452 kts | 163° |
| 2026-05-06 10:18 | 45.86097 | 6.36045 | 36916 ft | 450 kts | 162° |
| 2026-05-06 10:19 | 45.80292 | 6.39404 | 36914 ft | 450 kts | 162° |
| 2026-05-06 10:19 | 45.74535 | 6.42956 | 36919 ft | 451 kts | 161° |
| 2026-05-06 10:20 | 45.68789 | 6.46594 | 36896 ft | 451 kts | 161° |
| 2026-05-06 10:20 | 45.63040 | 6.50216 | 36905 ft | 452 kts | 161° |
| 2026-05-06 10:21 | 45.57280 | 6.53817 | 36893 ft | 452 kts | 161° |
| 2026-05-06 10:21 | 45.51520 | 6.57402 | 36893 ft | 451 kts | 161° |
| 2026-05-06 10:22 | 45.45765 | 6.60973 | 36892 ft | 451 kts | 161° |
| 2026-05-06 10:22 | 45.40024 | 6.64527 | 36880 ft | 448 kts | 162° |
| 2026-05-06 10:23 | 45.34316 | 6.68059 | 36869 ft | 446 kts | 162° |
| 2026-05-06 10:23 | 45.28624 | 6.71569 | 36869 ft | 445 kts | 162° |
| 2026-05-06 10:24 | 45.22939 | 6.75065 | 36865 ft | 445 kts | 162° |
| 2026-05-06 10:24 | 45.17254 | 6.78554 | 36842 ft | 446 kts | 162° |
| 2026-05-06 10:25 | 45.11595 | 6.82023 | 36853 ft | 446 kts | 162° |
| 2026-05-06 10:25 | 45.05902 | 6.85504 | 36853 ft | 446 kts | 162° |
| 2026-05-06 10:26 | 45.00211 | 6.88974 | 36853 ft | 445 kts | 162° |
| 2026-05-06 10:26 | 44.94524 | 6.92436 | 36834 ft | 444 kts | 162° |
| 2026-05-06 10:27 | 44.88863 | 6.95883 | 36843 ft | 443 kts | 162° |
| 2026-05-06 10:27 | 44.83165 | 6.99114 | 36847 ft | 438 kts | 169° |
| 2026-05-06 10:28 | 44.77253 | 7.00441 | 36817 ft | 426 kts | 185° |
| 2026-05-06 10:28 | 44.71371 | 6.99764 | 36824 ft | 424 kts | 191° |
| 2026-05-06 10:29 | 44.65514 | 6.98632 | 36841 ft | 425 kts | 192° |
| 2026-05-06 10:29 | 44.59658 | 6.97462 | 36841 ft | 425 kts | 191° |
| 2026-05-06 10:30 | 44.53810 | 6.96336 | 36860 ft | 425 kts | 191° |
| 2026-05-06 10:30 | 44.47938 | 6.95235 | 36860 ft | 426 kts | 191° |
| 2026-05-06 10:31 | 44.42078 | 6.94153 | 36850 ft | 424 kts | 191° |
| 2026-05-06 10:31 | 44.36226 | 6.93074 | 36857 ft | 425 kts | 191° |
| 2026-05-06 10:32 | 44.30346 | 6.91984 | 36856 ft | 427 kts | 191° |
| 2026-05-06 10:32 | 44.24466 | 6.90896 | 36859 ft | 426 kts | 191° |
| 2026-05-06 10:33 | 44.18584 | 6.89801 | 36850 ft | 426 kts | 191° |
| 2026-05-06 10:33 | 44.12647 | 6.89399 | 36846 ft | 431 kts | 181° |
| 2026-05-06 10:34 | 44.06654 | 6.90109 | 36821 ft | 433 kts | 179° |
| 2026-05-06 10:34 | 44.00691 | 6.91025 | 36843 ft | 435 kts | 179° |
| 2026-05-06 10:35 | 43.94690 | 6.91965 | 36851 ft | 433 kts | 179° |
| 2026-05-06 10:35 | 43.88709 | 6.92876 | 36863 ft | 433 kts | 179° |
| 2026-05-06 10:36 | 43.82717 | 6.93770 | 36871 ft | 433 kts | 179° |
| 2026-05-06 10:36 | 43.76723 | 6.94659 | 36868 ft | 433 kts | 179° |
| 2026-05-06 10:37 | 43.70731 | 6.95308 | 36877 ft | 430 kts | 183° |
| 2026-05-06 10:37 | 43.64764 | 6.95493 | 36885 ft | 428 kts | 184° |
| 2026-05-06 10:38 | 43.58808 | 6.95588 | 36881 ft | 428 kts | 185° |
| 2026-05-06 10:38 | 43.52852 | 6.95674 | 36881 ft | 428 kts | 185° |
| 2026-05-06 10:39 | 43.46893 | 6.95769 | 36884 ft | 428 kts | 185° |
| 2026-05-06 10:39 | 43.40938 | 6.95871 | 36860 ft | 428 kts | 185° |
| 2026-05-06 10:40 | 43.35018 | 6.95973 | 36886 ft | 428 kts | 185° |
| 2026-05-06 10:40 | 43.29061 | 6.96076 | 36894 ft | 428 kts | 185° |
| 2026-05-06 10:41 | 43.23108 | 6.96179 | 36892 ft | 428 kts | 185° |
| 2026-05-06 10:41 | 43.17147 | 6.96281 | 36906 ft | 428 kts | 185° |
| 2026-05-06 10:42 | 43.11186 | 6.96382 | 36915 ft | 428 kts | 185° |
| 2026-05-06 10:42 | 43.05225 | 6.96484 | 36912 ft | 428 kts | 185° |
| 2026-05-06 10:43 | 42.99264 | 6.96586 | 36915 ft | 429 kts | 185° |
| 2026-05-06 10:44 | 42.90312 | 6.96737 | 36919 ft | 429 kts | 185° |
| 2026-05-06 10:44 | 42.84338 | 6.96839 | 36925 ft | 429 kts | 185° |
| 2026-05-06 10:45 | 42.78372 | 6.96940 | 36925 ft | 429 kts | 185° |
| 2026-05-06 10:45 | 42.72396 | 6.97040 | 36930 ft | 429 kts | 185° |
| 2026-05-06 10:46 | 42.66422 | 6.97141 | 36931 ft | 429 kts | 185° |
| 2026-05-06 10:46 | 42.60448 | 6.97242 | 36935 ft | 429 kts | 185° |
| 2026-05-06 10:47 | 42.54471 | 6.97342 | 36938 ft | 429 kts | 185° |
| 2026-05-06 10:47 | 42.48496 | 6.97442 | 36939 ft | 429 kts | 185° |
| 2026-05-06 10:48 | 42.42521 | 6.97542 | 36944 ft | 429 kts | 185° |
| 2026-05-06 10:48 | 42.36585 | 6.97641 | 36946 ft | 430 kts | 185° |
| 2026-05-06 10:49 | 42.30603 | 6.97740 | 36949 ft | 430 kts | 185° |
| 2026-05-06 10:49 | 42.25590 | 6.97823 | 36949 ft | 430 kts | 185° |
| 2026-05-06 10:50 | 42.18634 | 6.97939 | 36939 ft | 430 kts | 185° |
| 2026-05-06 10:50 | 42.12647 | 6.98038 | 36955 ft | 430 kts | 185° |
| 2026-05-06 10:51 | 42.07628 | 6.98121 | 36958 ft | 431 kts | 185° |
| 2026-05-06 10:51 | 42.01675 | 6.98233 | 36960 ft | 431 kts | 184° |
| 2026-05-06 10:52 | 41.95675 | 6.98509 | 36960 ft | 432 kts | 183° |
| 2026-05-06 10:52 | 41.89660 | 6.98854 | 36967 ft | 433 kts | 183° |
| 2026-05-06 10:53 | 41.83646 | 6.99194 | 36966 ft | 433 kts | 183° |
| 2026-05-06 10:53 | 41.77630 | 6.99519 | 36967 ft | 433 kts | 183° |
| 2026-05-06 10:54 | 41.71610 | 6.99838 | 36972 ft | 433 kts | 183° |
| 2026-05-06 10:54 | 41.65589 | 7.00154 | 36967 ft | 433 kts | 183° |
| 2026-05-06 10:55 | 41.59561 | 7.00472 | 36975 ft | 433 kts | 183° |
| 2026-05-06 10:55 | 41.53543 | 7.00789 | 36965 ft | 433 kts | 183° |
| 2026-05-06 10:56 | 41.47511 | 7.01105 | 36978 ft | 434 kts | 183° |
| 2026-05-06 10:56 | 41.41472 | 7.01421 | 36967 ft | 434 kts | 183° |
| 2026-05-06 10:57 | 41.35436 | 7.01738 | 36978 ft | 434 kts | 183° |
| 2026-05-06 10:57 | 41.29388 | 7.02053 | 36974 ft | 435 kts | 183° |
| 2026-05-06 10:58 | 41.23336 | 7.02368 | 36974 ft | 435 kts | 183° |
| 2026-05-06 10:58 | 41.17324 | 7.02682 | 36978 ft | 435 kts | 183° |
| 2026-05-06 10:59 | 41.11268 | 7.02997 | 36968 ft | 436 kts | 183° |
| 2026-05-06 10:59 | 41.05203 | 7.03375 | 36974 ft | 437 kts | 182° |
| 2026-05-06 11:00 | 40.99127 | 7.03968 | 36977 ft | 438 kts | 181° |
| 2026-05-06 11:00 | 40.93050 | 7.04609 | 36979 ft | 438 kts | 181° |
| 2026-05-06 11:01 | 40.86970 | 7.05233 | 36979 ft | 439 kts | 181° |
| 2026-05-06 11:01 | 40.80870 | 7.05840 | 36976 ft | 440 kts | 181° |
| 2026-05-06 11:02 | 40.74768 | 7.06443 | 36974 ft | 440 kts | 181° |
| 2026-05-06 11:02 | 40.68667 | 7.07044 | 36960 ft | 440 kts | 181° |
| 2026-05-06 11:03 | 40.62553 | 7.07646 | 36976 ft | 441 kts | 181° |
| 2026-05-06 11:03 | 40.56432 | 7.08248 | 36977 ft | 441 kts | 181° |
| 2026-05-06 11:04 | 40.50309 | 7.08849 | 36977 ft | 441 kts | 181° |
| 2026-05-06 11:04 | 40.44187 | 7.09450 | 36977 ft | 441 kts | 181° |
| 2026-05-06 11:05 | 40.38107 | 7.10044 | 36975 ft | 441 kts | 181° |
| 2026-05-06 11:05 | 40.31991 | 7.10641 | 36975 ft | 441 kts | 181° |
| 2026-05-06 11:06 | 40.25862 | 7.11238 | 36979 ft | 441 kts | 181° |
| 2026-05-06 11:06 | 40.19734 | 7.11834 | 36984 ft | 442 kts | 181° |
| 2026-05-06 11:07 | 40.13603 | 7.12429 | 36971 ft | 442 kts | 181° |
| 2026-05-06 11:07 | 40.07468 | 7.13024 | 36988 ft | 442 kts | 181° |
| 2026-05-06 11:08 | 40.01337 | 7.13617 | 36970 ft | 442 kts | 181° |
| 2026-05-06 11:08 | 39.95203 | 7.14210 | 36975 ft | 442 kts | 181° |
| 2026-05-06 11:09 | 39.89072 | 7.14801 | 36983 ft | 442 kts | 181° |
| 2026-05-06 11:09 | 39.82940 | 7.15390 | 36980 ft | 442 kts | 181° |
| 2026-05-06 11:10 | 39.76815 | 7.15979 | 36977 ft | 440 kts | 181° |
| 2026-05-06 11:10 | 39.70774 | 7.15841 | 36981 ft | 431 kts | 191° |
| 2026-05-06 11:11 | 39.64833 | 7.14904 | 36982 ft | 430 kts | 192° |
| 2026-05-06 11:11 | 39.58910 | 7.13820 | 36983 ft | 430 kts | 193° |
| 2026-05-06 11:12 | 39.53006 | 7.12734 | 36979 ft | 428 kts | 193° |
| 2026-05-06 11:12 | 39.47158 | 7.11679 | 36979 ft | 427 kts | 193° |
| 2026-05-06 11:13 | 39.41275 | 7.10629 | 36979 ft | 427 kts | 193° |
| 2026-05-06 11:13 | 39.35385 | 7.09583 | 36959 ft | 427 kts | 193° |
| 2026-05-06 11:14 | 39.29517 | 7.08544 | 36981 ft | 424 kts | 193° |
| 2026-05-06 11:14 | 39.23674 | 7.07509 | 36982 ft | 424 kts | 193° |
| 2026-05-06 11:15 | 39.17832 | 7.06475 | 36978 ft | 424 kts | 193° |
| 2026-05-06 11:15 | 39.11992 | 7.05443 | 36975 ft | 424 kts | 193° |
| 2026-05-06 11:16 | 39.06150 | 7.04413 | 36978 ft | 424 kts | 193° |
| 2026-05-06 11:16 | 39.00307 | 7.03386 | 36980 ft | 424 kts | 192° |
| 2026-05-06 11:17 | 38.94453 | 7.02411 | 36981 ft | 424 kts | 192° |
| 2026-05-06 11:17 | 38.88597 | 7.01466 | 36971 ft | 424 kts | 192° |
| 2026-05-06 11:18 | 38.82739 | 7.00523 | 36980 ft | 424 kts | 192° |
| 2026-05-06 11:18 | 38.76883 | 6.99577 | 36978 ft | 424 kts | 192° |
| 2026-05-06 11:19 | 38.71026 | 6.98629 | 36973 ft | 424 kts | 192° |
| 2026-05-06 11:19 | 38.65166 | 6.97683 | 36980 ft | 425 kts | 192° |
| 2026-05-06 11:20 | 38.59301 | 6.96736 | 36974 ft | 425 kts | 192° |
| 2026-05-06 11:20 | 38.53468 | 6.95798 | 36976 ft | 425 kts | 192° |
| 2026-05-06 11:21 | 38.47594 | 6.94854 | 36966 ft | 425 kts | 192° |
| 2026-05-06 11:21 | 38.41718 | 6.93911 | 36966 ft | 426 kts | 192° |
| 2026-05-06 11:22 | 38.35837 | 6.92969 | 36972 ft | 426 kts | 192° |
| 2026-05-06 11:22 | 38.29952 | 6.92028 | 36972 ft | 427 kts | 192° |
| 2026-05-06 11:23 | 38.24061 | 6.91088 | 36969 ft | 427 kts | 192° |
| 2026-05-06 11:23 | 38.18165 | 6.90148 | 36968 ft | 427 kts | 192° |
| 2026-05-06 11:24 | 38.12276 | 6.89211 | 36969 ft | 427 kts | 192° |
| 2026-05-06 11:24 | 38.06387 | 6.88275 | 36969 ft | 427 kts | 192° |
| 2026-05-06 11:25 | 38.00492 | 6.87340 | 36965 ft | 427 kts | 192° |
| 2026-05-06 11:25 | 37.94635 | 6.86413 | 36967 ft | 427 kts | 193° |
| 2026-05-06 11:26 | 37.88728 | 6.85479 | 36960 ft | 428 kts | 192° |
| 2026-05-06 11:26 | 37.82821 | 6.84547 | 36963 ft | 428 kts | 192° |
| 2026-05-06 11:27 | 37.76911 | 6.83615 | 36963 ft | 430 kts | 192° |
| 2026-05-06 11:27 | 37.70957 | 6.82677 | 36961 ft | 432 kts | 192° |
| 2026-05-06 11:28 | 37.64990 | 6.81740 | 36958 ft | 432 kts | 192° |
| 2026-05-06 11:28 | 37.59019 | 6.80803 | 36965 ft | 432 kts | 192° |
| 2026-05-06 11:29 | 37.53051 | 6.79869 | 36958 ft | 432 kts | 192° |
| 2026-05-06 11:29 | 37.47079 | 6.78937 | 36966 ft | 433 kts | 193° |
| 2026-05-06 11:30 | 37.41086 | 6.78001 | 36966 ft | 434 kts | 193° |
| 2026-05-06 11:30 | 37.35096 | 6.77068 | 36948 ft | 434 kts | 193° |
| 2026-05-06 11:31 | 37.29106 | 6.76136 | 36968 ft | 434 kts | 193° |
| 2026-05-06 11:31 | 37.23102 | 6.75203 | 36961 ft | 437 kts | 193° |
| 2026-05-06 11:32 | 37.17096 | 6.74270 | 36958 ft | 438 kts | 193° |
| 2026-05-06 11:32 | 37.11044 | 6.73335 | 36960 ft | 438 kts | 193° |
| 2026-05-06 11:33 | 37.04996 | 6.72401 | 36956 ft | 438 kts | 193° |
| 2026-05-06 11:33 | 36.98932 | 6.71465 | 36960 ft | 440 kts | 193° |
| 2026-05-06 11:34 | 36.92845 | 6.70528 | 36949 ft | 441 kts | 193° |
| 2026-05-06 11:34 | 36.86758 | 6.69592 | 36958 ft | 441 kts | 193° |
| 2026-05-06 11:35 | 36.80668 | 6.68658 | 36953 ft | 441 kts | 193° |
| 2026-05-06 11:35 | 36.74567 | 6.67720 | 36956 ft | 443 kts | 194° |
| 2026-05-06 11:36 | 36.68439 | 6.66778 | 36950 ft | 444 kts | 194° |
| 2026-05-06 11:36 | 36.62311 | 6.65843 | 36953 ft | 444 kts | 194° |
| 2026-05-06 11:37 | 36.56180 | 6.64910 | 36927 ft | 444 kts | 194° |
| 2026-05-06 11:37 | 36.50035 | 6.63973 | 36959 ft | 446 kts | 194° |
| 2026-05-06 11:38 | 36.43871 | 6.63032 | 36960 ft | 446 kts | 194° |
| 2026-05-06 11:38 | 36.37742 | 6.62101 | 36966 ft | 447 kts | 194° |
| 2026-05-06 11:39 | 36.31558 | 6.61251 | 36925 ft | 451 kts | 191° |
| 2026-05-06 11:39 | 36.28386 | 6.61324 | 36960 ft | 462 kts | 183° |
| 2026-05-06 11:39 | 36.25173 | 6.61878 | 36965 ft | 468 kts | 179° |
| 2026-05-06 11:40 | 36.18738 | 6.63412 | 36963 ft | 473 kts | 177° |
| 2026-05-06 11:40 | 36.12300 | 6.65119 | 36959 ft | 473 kts | 177° |
| 2026-05-06 11:41 | 36.06950 | 6.66529 | 36951 ft | 473 kts | 177° |
| 2026-05-06 11:41 | 36.00496 | 6.68194 | 36940 ft | 475 kts | 178° |
| 2026-05-06 11:42 | 35.94028 | 6.69838 | 36935 ft | 475 kts | 178° |
| 2026-05-06 11:42 | 35.87556 | 6.71478 | 36928 ft | 475 kts | 178° |
| 2026-05-06 11:43 | 35.81081 | 6.73118 | 36933 ft | 475 kts | 178° |
| 2026-05-06 11:43 | 35.74603 | 6.74757 | 36927 ft | 475 kts | 178° |
| 2026-05-06 11:44 | 35.64893 | 6.77208 | 36922 ft | 475 kts | 178° |
| 2026-05-06 11:44 | 35.58414 | 6.78841 | 36924 ft | 475 kts | 178° |
| 2026-05-06 11:45 | 35.51940 | 6.80469 | 36922 ft | 475 kts | 179° |
| 2026-05-06 11:45 | 35.45459 | 6.82096 | 36923 ft | 475 kts | 179° |
| 2026-05-06 11:46 | 35.38980 | 6.83720 | 36921 ft | 475 kts | 179° |
| 2026-05-06 11:46 | 35.32500 | 6.85342 | 36912 ft | 476 kts | 179° |
| 2026-05-06 11:47 | 35.26015 | 6.86962 | 36909 ft | 476 kts | 180° |
| 2026-05-06 11:47 | 35.19536 | 6.88578 | 36910 ft | 475 kts | 180° |
| 2026-05-06 11:48 | 35.13091 | 6.90183 | 36879 ft | 476 kts | 180° |
| 2026-05-06 11:48 | 35.06608 | 6.91796 | 36894 ft | 476 kts | 180° |
| 2026-05-06 11:49 | 35.00120 | 6.93407 | 36861 ft | 476 kts | 180° |
| 2026-05-06 11:49 | 34.93634 | 6.95015 | 36837 ft | 476 kts | 180° |
| 2026-05-06 11:50 | 34.87157 | 6.96618 | 36832 ft | 474 kts | 180° |
| 2026-05-06 11:50 | 34.80687 | 6.98215 | 36811 ft | 475 kts | 180° |
| 2026-05-06 11:51 | 34.74211 | 6.99839 | 36810 ft | 476 kts | 180° |
| 2026-05-06 11:51 | 34.67729 | 7.01484 | 36786 ft | 476 kts | 180° |
| 2026-05-06 11:52 | 34.61248 | 7.03127 | 36765 ft | 476 kts | 180° |
| 2026-05-06 11:52 | 34.54763 | 7.04765 | 36767 ft | 476 kts | 180° |
| 2026-05-06 11:53 | 34.48284 | 7.06397 | 36751 ft | 476 kts | 180° |
| 2026-05-06 11:53 | 34.41841 | 7.08016 | 36746 ft | 476 kts | 180° |
| 2026-05-06 11:54 | 34.35355 | 7.09644 | 36746 ft | 476 kts | 180° |
| 2026-05-06 11:54 | 34.28872 | 7.11269 | 36741 ft | 476 kts | 180° |
| 2026-05-06 11:55 | 34.22385 | 7.12892 | 36739 ft | 477 kts | 180° |
| 2026-05-06 11:55 | 34.15880 | 7.14516 | 36735 ft | 477 kts | 180° |
| 2026-05-06 11:56 | 34.09378 | 7.16139 | 36732 ft | 477 kts | 180° |
| 2026-05-06 11:56 | 34.02872 | 7.17760 | 36733 ft | 477 kts | 180° |
| 2026-05-06 11:57 | 33.96368 | 7.19377 | 36731 ft | 477 kts | 180° |
| 2026-05-06 11:57 | 33.89901 | 7.20983 | 36733 ft | 477 kts | 180° |
| 2026-05-06 11:58 | 33.83393 | 7.22596 | 36730 ft | 477 kts | 180° |
| 2026-05-06 11:58 | 33.76885 | 7.24208 | 36727 ft | 477 kts | 180° |
| 2026-05-06 11:59 | 33.70382 | 7.25815 | 36712 ft | 477 kts | 179° |
| 2026-05-06 11:59 | 33.63888 | 7.27419 | 36716 ft | 476 kts | 180° |
| 2026-05-06 12:00 | 33.57401 | 7.29015 | 36718 ft | 476 kts | 180° |
| 2026-05-06 12:00 | 33.50908 | 7.30612 | 36717 ft | 476 kts | 180° |
| 2026-05-06 12:01 | 33.44414 | 7.32207 | 36705 ft | 477 kts | 179° |
| 2026-05-06 12:01 | 33.37899 | 7.33802 | 36710 ft | 479 kts | 179° |
| 2026-05-06 12:02 | 33.31373 | 7.35402 | 36709 ft | 479 kts | 179° |
| 2026-05-06 12:02 | 33.24849 | 7.36999 | 36704 ft | 479 kts | 179° |
| 2026-05-06 12:03 | 33.18322 | 7.38593 | 36704 ft | 478 kts | 179° |
| 2026-05-06 12:03 | 33.11804 | 7.40182 | 36701 ft | 478 kts | 179° |
| 2026-05-06 12:04 | 33.05282 | 7.41769 | 36702 ft | 478 kts | 179° |
| 2026-05-06 12:04 | 32.98756 | 7.43354 | 36702 ft | 478 kts | 179° |
| 2026-05-06 12:05 | 32.92234 | 7.44937 | 36678 ft | 478 kts | 179° |
| 2026-05-06 12:05 | 32.85687 | 7.46521 | 36697 ft | 481 kts | 179° |
| 2026-05-06 12:06 | 32.79166 | 7.48099 | 36688 ft | 482 kts | 179° |
| 2026-05-06 12:06 | 32.72599 | 7.49687 | 36703 ft | 482 kts | 179° |
| 2026-05-06 12:07 | 32.66034 | 7.51271 | 36657 ft | 481 kts | 178° |
| 2026-05-06 12:07 | 32.59479 | 7.52851 | 36699 ft | 480 kts | 178° |
| 2026-05-06 12:08 | 32.52937 | 7.54425 | 36699 ft | 480 kts | 178° |
| 2026-05-06 12:08 | 32.46398 | 7.55995 | 36703 ft | 480 kts | 178° |
| 2026-05-06 12:09 | 32.39854 | 7.57563 | 36705 ft | 480 kts | 178° |
| 2026-05-06 12:09 | 32.33321 | 7.59128 | 36700 ft | 479 kts | 178° |
| 2026-05-06 12:10 | 32.26780 | 7.60690 | 36705 ft | 480 kts | 178° |
| 2026-05-06 12:10 | 32.20228 | 7.62254 | 36706 ft | 481 kts | 178° |
| 2026-05-06 12:11 | 32.13670 | 7.63817 | 36706 ft | 481 kts | 178° |
| 2026-05-06 12:11 | 32.07112 | 7.65378 | 36704 ft | 481 kts | 177° |
| 2026-05-06 12:12 | 32.00550 | 7.66938 | 36707 ft | 481 kts | 177° |
| 2026-05-06 12:12 | 31.93993 | 7.68495 | 36712 ft | 481 kts | 177° |
| 2026-05-06 12:13 | 31.87434 | 7.70049 | 36710 ft | 481 kts | 178° |
| 2026-05-06 12:13 | 31.80878 | 7.71600 | 36709 ft | 481 kts | 177° |
| 2026-05-06 12:14 | 31.74300 | 7.73158 | 36710 ft | 483 kts | 177° |
| 2026-05-06 12:14 | 31.67763 | 7.74735 | 36717 ft | 483 kts | 176° |
| 2026-05-06 12:15 | 31.61183 | 7.76332 | 36710 ft | 483 kts | 176° |
| 2026-05-06 12:15 | 31.54603 | 7.77923 | 36708 ft | 483 kts | 176° |
| 2026-05-06 12:16 | 31.47991 | 7.79514 | 36719 ft | 487 kts | 176° |
| 2026-05-06 12:16 | 31.41352 | 7.81111 | 36715 ft | 487 kts | 176° |
| 2026-05-06 12:17 | 31.34711 | 7.82708 | 36711 ft | 487 kts | 176° |
| 2026-05-06 12:17 | 31.28073 | 7.84301 | 36689 ft | 487 kts | 176° |
| 2026-05-06 12:18 | 31.21448 | 7.85889 | 36715 ft | 485 kts | 176° |
| 2026-05-06 12:18 | 31.14840 | 7.87471 | 36717 ft | 485 kts | 176° |
| 2026-05-06 12:19 | 31.08235 | 7.89048 | 36718 ft | 485 kts | 176° |
| 2026-05-06 12:19 | 31.01629 | 7.90622 | 36714 ft | 485 kts | 176° |
| 2026-05-06 12:20 | 30.95033 | 7.92195 | 36712 ft | 482 kts | 176° |
| 2026-05-06 12:20 | 30.88475 | 7.93757 | 36714 ft | 480 kts | 176° |
| 2026-05-06 12:21 | 30.81927 | 7.95311 | 36716 ft | 480 kts | 176° |
| 2026-05-06 12:21 | 30.75382 | 7.96862 | 36716 ft | 480 kts | 176° |
| 2026-05-06 12:22 | 30.68835 | 7.98412 | 36711 ft | 480 kts | 176° |
| 2026-05-06 12:22 | 30.62298 | 7.99959 | 36718 ft | 479 kts | 176° |
| 2026-05-06 12:23 | 30.55758 | 8.01503 | 36719 ft | 479 kts | 176° |
| 2026-05-06 12:23 | 30.49227 | 8.03044 | 36719 ft | 479 kts | 176° |
| 2026-05-06 12:24 | 30.42734 | 8.04573 | 36719 ft | 479 kts | 176° |
| 2026-05-06 12:24 | 30.36203 | 8.06109 | 36727 ft | 479 kts | 176° |
| 2026-05-06 12:25 | 30.29667 | 8.07644 | 36728 ft | 479 kts | 176° |
| 2026-05-06 12:25 | 30.23135 | 8.09177 | 36731 ft | 479 kts | 176° |
| 2026-05-06 12:26 | 30.16596 | 8.10708 | 36732 ft | 479 kts | 176° |
| 2026-05-06 12:26 | 30.10062 | 8.12238 | 36740 ft | 479 kts | 176° |
| 2026-05-06 12:27 | 30.03532 | 8.13772 | 36728 ft | 479 kts | 176° |
| 2026-05-06 12:27 | 29.97002 | 8.15323 | 36732 ft | 479 kts | 176° |
| 2026-05-06 12:28 | 29.90480 | 8.16875 | 36752 ft | 479 kts | 176° |
| 2026-05-06 12:28 | 29.83956 | 8.18424 | 36729 ft | 479 kts | 176° |
| 2026-05-06 12:29 | 29.77425 | 8.19971 | 36752 ft | 479 kts | 176° |
| 2026-05-06 12:29 | 29.70896 | 8.21514 | 36743 ft | 479 kts | 176° |
| 2026-05-06 12:30 | 29.64366 | 8.23056 | 36750 ft | 479 kts | 176° |
| 2026-05-06 12:30 | 29.58941 | 8.24336 | 36751 ft | 479 kts | 176° |
| 2026-05-06 12:31 | 29.52410 | 8.25875 | 36755 ft | 479 kts | 176° |
| 2026-05-06 12:31 | 29.45874 | 8.27413 | 36755 ft | 480 kts | 176° |
| 2026-05-06 12:32 | 29.39336 | 8.28949 | 36759 ft | 480 kts | 176° |
| 2026-05-06 12:32 | 29.32795 | 8.30485 | 36764 ft | 480 kts | 176° |
| 2026-05-06 12:33 | 29.26262 | 8.32016 | 36746 ft | 479 kts | 176° |
| 2026-05-06 12:33 | 29.19716 | 8.33547 | 36766 ft | 480 kts | 176° |
| 2026-05-06 12:34 | 29.13163 | 8.35079 | 36769 ft | 481 kts | 176° |
| 2026-05-06 12:34 | 29.06607 | 8.36609 | 36780 ft | 481 kts | 176° |
| 2026-05-06 12:35 | 29.00047 | 8.38140 | 36777 ft | 481 kts | 176° |
| 2026-05-06 12:35 | 28.93480 | 8.39669 | 36782 ft | 482 kts | 176° |
| 2026-05-06 12:36 | 28.86906 | 8.41197 | 36787 ft | 482 kts | 176° |
| 2026-05-06 12:36 | 28.80336 | 8.42723 | 36788 ft | 482 kts | 176° |
| 2026-05-06 12:37 | 28.73758 | 8.44249 | 36792 ft | 482 kts | 176° |
| 2026-05-06 12:37 | 28.67178 | 8.45774 | 36780 ft | 482 kts | 176° |
| 2026-05-06 12:38 | 28.60594 | 8.47296 | 36796 ft | 483 kts | 176° |
| 2026-05-06 12:38 | 28.54013 | 8.48817 | 36796 ft | 483 kts | 176° |
| 2026-05-06 12:39 | 28.47428 | 8.50337 | 36801 ft | 483 kts | 176° |
| 2026-05-06 12:39 | 28.40844 | 8.51855 | 36800 ft | 483 kts | 176° |
| 2026-05-06 12:40 | 28.34253 | 8.53371 | 36802 ft | 484 kts | 177° |
| 2026-05-06 12:40 | 28.27698 | 8.54877 | 36802 ft | 484 kts | 177° |
| 2026-05-06 12:41 | 28.21094 | 8.56393 | 36787 ft | 484 kts | 177° |
| 2026-05-06 12:41 | 28.14492 | 8.57909 | 36807 ft | 484 kts | 177° |
| 2026-05-06 12:42 | 28.07889 | 8.59423 | 36787 ft | 484 kts | 177° |
| 2026-05-06 12:42 | 28.01275 | 8.60952 | 36807 ft | 486 kts | 177° |
| 2026-05-06 12:43 | 27.94654 | 8.62488 | 36807 ft | 486 kts | 177° |
| 2026-05-06 12:43 | 27.88037 | 8.64020 | 36807 ft | 485 kts | 177° |
| 2026-05-06 12:44 | 27.81414 | 8.65550 | 36807 ft | 485 kts | 177° |
| 2026-05-06 12:44 | 27.74793 | 8.67076 | 36810 ft | 486 kts | 178° |
| 2026-05-06 12:45 | 27.68155 | 8.68604 | 36809 ft | 487 kts | 178° |
| 2026-05-06 12:46 | 27.58189 | 8.70897 | 36814 ft | 487 kts | 178° |
| 2026-05-06 12:46 | 27.51552 | 8.72421 | 36812 ft | 487 kts | 178° |
| 2026-05-06 12:47 | 27.44938 | 8.73937 | 36811 ft | 488 kts | 178° |
| 2026-05-06 12:47 | 27.38277 | 8.75462 | 36810 ft | 489 kts | 178° |
| 2026-05-06 12:48 | 27.31612 | 8.76988 | 36808 ft | 488 kts | 178° |
| 2026-05-06 12:48 | 27.24956 | 8.78509 | 36809 ft | 488 kts | 178° |
| 2026-05-06 12:49 | 27.18294 | 8.80030 | 36804 ft | 489 kts | 178° |
| 2026-05-06 12:49 | 27.11617 | 8.81550 | 36810 ft | 490 kts | 178° |
| 2026-05-06 12:50 | 27.04929 | 8.83072 | 36811 ft | 490 kts | 178° |
| 2026-05-06 12:50 | 26.98241 | 8.84595 | 36823 ft | 490 kts | 178° |
| 2026-05-06 12:51 | 26.91553 | 8.86127 | 36841 ft | 490 kts | 178° |
| 2026-05-06 12:51 | 26.84866 | 8.87660 | 36853 ft | 492 kts | 178° |
| 2026-05-06 12:52 | 26.78151 | 8.89196 | 36848 ft | 493 kts | 178° |
| 2026-05-06 12:52 | 26.71440 | 8.90730 | 36821 ft | 493 kts | 178° |
| 2026-05-06 12:53 | 26.64722 | 8.92263 | 36821 ft | 492 kts | 178° |
| 2026-05-06 12:53 | 26.58006 | 8.93794 | 36810 ft | 492 kts | 178° |
| 2026-05-06 12:54 | 26.51287 | 8.95323 | 36824 ft | 493 kts | 178° |
| 2026-05-06 12:54 | 26.44567 | 8.96851 | 36829 ft | 493 kts | 178° |
| 2026-05-06 12:55 | 26.37838 | 8.98380 | 36826 ft | 493 kts | 178° |
| 2026-05-06 12:55 | 26.31115 | 8.99905 | 36837 ft | 493 kts | 178° |
| 2026-05-06 12:56 | 26.24389 | 9.01428 | 36833 ft | 493 kts | 178° |
| 2026-05-06 12:56 | 26.17656 | 9.02951 | 36841 ft | 494 kts | 178° |
| 2026-05-06 12:57 | 26.10971 | 9.04463 | 36844 ft | 494 kts | 178° |
| 2026-05-06 12:57 | 26.04239 | 9.05984 | 36846 ft | 493 kts | 177° |
| 2026-05-06 12:58 | 25.97512 | 9.07505 | 36850 ft | 494 kts | 178° |
| 2026-05-06 12:58 | 25.90771 | 9.09033 | 36849 ft | 495 kts | 177° |
| 2026-05-06 12:59 | 25.84015 | 9.10567 | 36853 ft | 496 kts | 177° |
| 2026-05-06 12:59 | 25.77252 | 9.12102 | 36850 ft | 496 kts | 177° |
| 2026-05-06 13:00 | 25.70488 | 9.13634 | 36856 ft | 496 kts | 177° |
| 2026-05-06 13:00 | 25.63719 | 9.15164 | 36850 ft | 496 kts | 177° |
| 2026-05-06 13:01 | 25.56945 | 9.16694 | 36866 ft | 497 kts | 177° |
| 2026-05-06 13:01 | 25.50163 | 9.18226 | 36864 ft | 497 kts | 177° |
| 2026-05-06 13:02 | 25.43378 | 9.19756 | 36882 ft | 497 kts | 177° |
| 2026-05-06 13:02 | 25.36599 | 9.21283 | 36882 ft | 497 kts | 177° |
| 2026-05-06 13:03 | 25.29809 | 9.22808 | 36908 ft | 499 kts | 177° |
| 2026-05-06 13:03 | 25.23000 | 9.24336 | 36892 ft | 500 kts | 177° |
| 2026-05-06 13:04 | 25.16187 | 9.25866 | 36900 ft | 500 kts | 177° |
| 2026-05-06 13:04 | 25.09375 | 9.27394 | 36902 ft | 499 kts | 177° |
| 2026-05-06 13:05 | 25.02568 | 9.28918 | 36895 ft | 499 kts | 176° |
| 2026-05-06 13:05 | 24.95741 | 9.30443 | 36900 ft | 501 kts | 177° |
| 2026-05-06 13:06 | 24.88904 | 9.31970 | 36907 ft | 501 kts | 176° |
| 2026-05-06 13:06 | 24.82066 | 9.33496 | 36896 ft | 501 kts | 177° |
| 2026-05-06 13:07 | 24.75235 | 9.35019 | 36895 ft | 501 kts | 177° |
| 2026-05-06 13:07 | 24.68396 | 9.36541 | 36873 ft | 502 kts | 176° |
| 2026-05-06 13:08 | 24.61550 | 9.38063 | 36879 ft | 502 kts | 176° |
| 2026-05-06 13:08 | 24.54699 | 9.39585 | 36936 ft | 502 kts | 176° |
| 2026-05-06 13:09 | 24.47848 | 9.41105 | 36971 ft | 502 kts | 176° |
| 2026-05-06 13:09 | 24.40994 | 9.42624 | 37004 ft | 502 kts | 176° |
| 2026-05-06 13:10 | 24.34143 | 9.44141 | 37021 ft | 502 kts | 176° |
| 2026-05-06 13:10 | 24.27389 | 9.46422 | 37015 ft | 518 kts | 160° |
| 2026-05-06 13:11 | 24.21041 | 9.50157 | 37019 ft | 524 kts | 156° |
| 2026-05-06 13:11 | 24.14751 | 9.54216 | 36955 ft | 525 kts | 155° |
| 2026-05-06 13:12 | 24.08470 | 9.58306 | 36896 ft | 525 kts | 155° |
| 2026-05-06 13:12 | 24.02178 | 9.62360 | 36859 ft | 525 kts | 155° |
| 2026-05-06 13:13 | 23.95867 | 9.66394 | 36853 ft | 525 kts | 156° |
| 2026-05-06 13:13 | 23.89552 | 9.70420 | 36842 ft | 525 kts | 156° |
| 2026-05-06 13:14 | 23.83241 | 9.74439 | 36846 ft | 525 kts | 156° |
| 2026-05-06 13:14 | 23.76929 | 9.78455 | 36834 ft | 525 kts | 156° |
| 2026-05-06 13:15 | 23.70613 | 9.82470 | 36827 ft | 526 kts | 155° |
| 2026-05-06 13:15 | 23.64289 | 9.86485 | 36823 ft | 526 kts | 155° |
| 2026-05-06 13:16 | 23.57961 | 9.90499 | 36820 ft | 526 kts | 155° |
| 2026-05-06 13:16 | 23.51632 | 9.94509 | 36818 ft | 526 kts | 155° |
| 2026-05-06 13:17 | 23.46373 | 9.97838 | 36820 ft | 526 kts | 155° |
| 2026-05-06 13:17 | 23.39017 | 10.02488 | 36810 ft | 526 kts | 155° |
| 2026-05-06 13:18 | 23.32686 | 10.06486 | 36812 ft | 526 kts | 155° |
| 2026-05-06 13:18 | 23.26355 | 10.10479 | 36809 ft | 526 kts | 155° |
| 2026-05-06 13:19 | 23.21048 | 10.13823 | 36809 ft | 526 kts | 155° |
| 2026-05-06 13:19 | 23.14716 | 10.17808 | 36809 ft | 526 kts | 155° |
| 2026-05-06 13:20 | 23.08383 | 10.21790 | 36798 ft | 526 kts | 155° |
| 2026-05-06 13:20 | 23.02046 | 10.25770 | 36806 ft | 526 kts | 155° |
| 2026-05-06 13:21 | 22.95711 | 10.29745 | 36807 ft | 526 kts | 155° |
| 2026-05-06 13:21 | 22.89411 | 10.33693 | 36808 ft | 526 kts | 155° |
| 2026-05-06 13:22 | 22.83074 | 10.37660 | 36802 ft | 526 kts | 155° |
| 2026-05-06 13:22 | 22.76730 | 10.41627 | 36804 ft | 526 kts | 155° |
| 2026-05-06 13:23 | 22.70391 | 10.45586 | 36796 ft | 525 kts | 155° |
| 2026-05-06 13:23 | 22.64060 | 10.49538 | 36803 ft | 525 kts | 155° |
| 2026-05-06 13:24 | 22.57787 | 10.53633 | 36801 ft | 527 kts | 153° |
| 2026-05-06 13:24 | 22.51572 | 10.57834 | 36802 ft | 527 kts | 153° |
| 2026-05-06 13:25 | 22.45346 | 10.62038 | 36797 ft | 528 kts | 153° |
| 2026-05-06 13:25 | 22.39111 | 10.66222 | 36811 ft | 528 kts | 153° |
| 2026-05-06 13:26 | 22.32865 | 10.70397 | 36792 ft | 528 kts | 153° |
| 2026-05-06 13:26 | 22.26646 | 10.74550 | 36847 ft | 519 kts | 153° |
| 2026-05-06 13:27 | 22.20587 | 10.78598 | 36942 ft | 508 kts | 153° |
| 2026-05-06 13:27 | 22.14570 | 10.82602 | 37045 ft | 509 kts | 153° |
| 2026-05-06 13:28 | 22.08571 | 10.86589 | 37132 ft | 510 kts | 153° |
| 2026-05-06 13:28 | 22.02520 | 10.90610 | 37237 ft | 511 kts | 153° |
| 2026-05-06 13:29 | 21.96463 | 10.94633 | 37354 ft | 512 kts | 153° |
| 2026-05-06 13:29 | 21.90387 | 10.98665 | 37446 ft | 513 kts | 153° |
| 2026-05-06 13:30 | 21.84299 | 11.02700 | 37543 ft | 515 kts | 153° |
| 2026-05-06 13:30 | 21.78194 | 11.06743 | 37651 ft | 516 kts | 153° |
| 2026-05-06 13:31 | 21.72074 | 11.10791 | 37744 ft | 517 kts | 153° |
| 2026-05-06 13:31 | 21.65943 | 11.14843 | 37840 ft | 518 kts | 154° |
| 2026-05-06 13:32 | 21.59800 | 11.18898 | 37954 ft | 519 kts | 154° |
| 2026-05-06 13:32 | 21.53643 | 11.22959 | 38071 ft | 520 kts | 154° |
| 2026-05-06 13:33 | 21.47469 | 11.27027 | 38176 ft | 521 kts | 154° |
| 2026-05-06 13:33 | 21.41284 | 11.31097 | 38278 ft | 522 kts | 153° |
| 2026-05-06 13:34 | 21.35074 | 11.35180 | 38372 ft | 524 kts | 153° |
| 2026-05-06 13:34 | 21.28887 | 11.39243 | 38473 ft | 526 kts | 153° |
| 2026-05-06 13:35 | 21.22639 | 11.43344 | 38572 ft | 527 kts | 153° |
| 2026-05-06 13:35 | 21.16385 | 11.47445 | 38640 ft | 527 kts | 153° |
| 2026-05-06 13:36 | 21.10125 | 11.51545 | 38748 ft | 528 kts | 153° |
| 2026-05-06 13:36 | 21.03861 | 11.55644 | 38777 ft | 528 kts | 153° |
| 2026-05-06 13:37 | 20.97592 | 11.59743 | 38771 ft | 528 kts | 153° |
| 2026-05-06 13:37 | 20.91331 | 11.63832 | 38775 ft | 528 kts | 154° |
| 2026-05-06 13:38 | 20.85063 | 11.67922 | 38776 ft | 528 kts | 153° |
| 2026-05-06 13:38 | 20.78791 | 11.72009 | 38773 ft | 529 kts | 153° |
| 2026-05-06 13:39 | 20.72506 | 11.76102 | 38765 ft | 529 kts | 153° |
| 2026-05-06 13:39 | 20.66211 | 11.80196 | 38773 ft | 530 kts | 153° |
| 2026-05-06 13:40 | 20.59914 | 11.84289 | 38771 ft | 530 kts | 153° |
| 2026-05-06 13:40 | 20.53616 | 11.88378 | 38771 ft | 530 kts | 153° |
| 2026-05-06 13:41 | 20.47314 | 11.92463 | 38775 ft | 530 kts | 153° |
| 2026-05-06 13:41 | 20.41014 | 11.96543 | 38774 ft | 530 kts | 153° |
| 2026-05-06 13:42 | 20.34707 | 12.00623 | 38774 ft | 531 kts | 153° |
| 2026-05-06 13:42 | 20.28426 | 12.04682 | 38781 ft | 533 kts | 153° |
| 2026-05-06 13:43 | 20.22073 | 12.08783 | 38780 ft | 535 kts | 153° |
| 2026-05-06 13:43 | 20.15703 | 12.12893 | 38780 ft | 536 kts | 153° |
| 2026-05-06 13:44 | 20.09331 | 12.17001 | 38777 ft | 536 kts | 153° |
| 2026-05-06 13:44 | 20.02955 | 12.21107 | 38773 ft | 536 kts | 153° |
| 2026-05-06 13:45 | 19.96573 | 12.25212 | 38777 ft | 537 kts | 153° |
| 2026-05-06 13:45 | 19.86989 | 12.31370 | 38777 ft | 537 kts | 153° |
| 2026-05-06 13:46 | 19.80597 | 12.35472 | 38780 ft | 537 kts | 153° |
| 2026-05-06 13:46 | 19.74209 | 12.39568 | 38780 ft | 537 kts | 153° |
| 2026-05-06 13:47 | 19.67816 | 12.43662 | 38787 ft | 536 kts | 153° |
| 2026-05-06 13:47 | 19.61431 | 12.47748 | 38784 ft | 535 kts | 153° |
| 2026-05-06 13:48 | 19.55054 | 12.51825 | 38787 ft | 535 kts | 153° |
| 2026-05-06 13:48 | 19.48681 | 12.55896 | 38789 ft | 535 kts | 153° |
| 2026-05-06 13:49 | 19.42302 | 12.59967 | 38773 ft | 535 kts | 153° |
| 2026-05-06 13:49 | 19.35925 | 12.64032 | 38781 ft | 535 kts | 153° |
| 2026-05-06 13:50 | 19.29555 | 12.68090 | 38784 ft | 534 kts | 153° |
| 2026-05-06 13:50 | 19.23195 | 12.72137 | 38787 ft | 533 kts | 153° |
| 2026-05-06 13:51 | 19.16879 | 12.76152 | 38781 ft | 533 kts | 153° |
| 2026-05-06 13:51 | 19.10519 | 12.80192 | 38788 ft | 533 kts | 153° |
| 2026-05-06 13:52 | 19.04157 | 12.84229 | 38784 ft | 533 kts | 153° |
| 2026-05-06 13:52 | 18.97930 | 12.88505 | 38782 ft | 536 kts | 142° |
| 2026-05-06 13:53 | 18.92334 | 12.93718 | 38792 ft | 537 kts | 139° |
| 2026-05-06 13:53 | 18.86882 | 12.99115 | 38793 ft | 537 kts | 138° |
| 2026-05-06 13:54 | 18.81456 | 13.04536 | 38792 ft | 537 kts | 138° |
| 2026-05-06 13:54 | 18.76015 | 13.09940 | 38797 ft | 537 kts | 139° |
| 2026-05-06 13:55 | 18.70562 | 13.15329 | 38793 ft | 537 kts | 138° |
| 2026-05-06 13:55 | 18.65101 | 13.20714 | 38797 ft | 537 kts | 138° |
| 2026-05-06 13:56 | 18.59643 | 13.26091 | 38798 ft | 537 kts | 138° |
| 2026-05-06 13:56 | 18.54189 | 13.31461 | 38798 ft | 537 kts | 138° |
| 2026-05-06 13:57 | 18.48731 | 13.36830 | 38798 ft | 537 kts | 138° |
| 2026-05-06 13:57 | 18.43273 | 13.42194 | 38800 ft | 537 kts | 138° |
| 2026-05-06 13:58 | 18.37816 | 13.47552 | 38796 ft | 537 kts | 138° |
| 2026-05-06 13:58 | 18.32390 | 13.52876 | 38797 ft | 537 kts | 138° |
| 2026-05-06 13:59 | 18.26918 | 13.58238 | 38792 ft | 538 kts | 138° |
| 2026-05-06 13:59 | 18.21445 | 13.63598 | 38796 ft | 537 kts | 138° |
| 2026-05-06 14:00 | 18.15973 | 13.68951 | 38796 ft | 537 kts | 138° |
| 2026-05-06 14:00 | 18.10500 | 13.74302 | 38796 ft | 537 kts | 138° |
| 2026-05-06 14:01 | 18.05026 | 13.79648 | 38797 ft | 537 kts | 138° |
| 2026-05-06 14:01 | 17.99550 | 13.84991 | 38796 ft | 537 kts | 138° |
| 2026-05-06 14:02 | 17.94073 | 13.90330 | 38794 ft | 537 kts | 138° |
| 2026-05-06 14:02 | 17.88598 | 13.95663 | 38794 ft | 536 kts | 138° |
| 2026-05-06 14:03 | 17.83173 | 14.00943 | 38794 ft | 535 kts | 138° |
| 2026-05-06 14:03 | 17.77721 | 14.06244 | 38799 ft | 535 kts | 138° |
| 2026-05-06 14:04 | 17.72262 | 14.11547 | 38796 ft | 535 kts | 138° |
| 2026-05-06 14:04 | 17.66803 | 14.16844 | 38805 ft | 535 kts | 138° |
| 2026-05-06 14:05 | 17.61343 | 14.22139 | 38796 ft | 535 kts | 138° |
| 2026-05-06 14:05 | 17.55880 | 14.27432 | 38790 ft | 535 kts | 138° |
| 2026-05-06 14:06 | 17.50415 | 14.32723 | 38797 ft | 535 kts | 138° |
| 2026-05-06 14:06 | 17.44948 | 14.38011 | 38793 ft | 535 kts | 138° |
| 2026-05-06 14:07 | 17.39478 | 14.43298 | 38790 ft | 535 kts | 138° |
| 2026-05-06 14:07 | 17.34011 | 14.48576 | 38784 ft | 535 kts | 138° |
| 2026-05-06 14:08 | 17.29466 | 14.52962 | 38783 ft | 535 kts | 138° |
| 2026-05-06 14:08 | 17.23992 | 14.58238 | 38786 ft | 535 kts | 138° |
| 2026-05-06 14:09 | 17.18522 | 14.63507 | 38776 ft | 534 kts | 138° |
| 2026-05-06 14:09 | 17.13059 | 14.68764 | 38775 ft | 533 kts | 138° |
| 2026-05-06 14:10 | 17.07598 | 14.74015 | 38790 ft | 533 kts | 138° |
| 2026-05-06 14:10 | 17.02137 | 14.79261 | 38770 ft | 533 kts | 138° |
| 2026-05-06 14:11 | 16.96676 | 14.84504 | 38785 ft | 533 kts | 138° |
| 2026-05-06 14:11 | 16.91217 | 14.89740 | 38765 ft | 533 kts | 138° |
| 2026-05-06 14:12 | 16.85753 | 14.94976 | 38770 ft | 533 kts | 137° |
| 2026-05-06 14:12 | 16.80290 | 15.00207 | 38775 ft | 533 kts | 137° |
| 2026-05-06 14:13 | 16.74831 | 15.05431 | 38772 ft | 532 kts | 137° |
| 2026-05-06 14:13 | 16.69370 | 15.10652 | 38772 ft | 532 kts | 137° |
| 2026-05-06 14:14 | 16.63906 | 15.15872 | 38769 ft | 532 kts | 137° |
| 2026-05-06 14:14 | 16.58445 | 15.21084 | 38768 ft | 532 kts | 137° |
| 2026-05-06 14:15 | 16.53015 | 15.26263 | 38766 ft | 532 kts | 137° |
| 2026-05-06 14:15 | 16.47511 | 15.31508 | 38759 ft | 532 kts | 137° |
| 2026-05-06 14:16 | 16.42088 | 15.36672 | 38763 ft | 531 kts | 137° |
| 2026-05-06 14:16 | 16.36635 | 15.41860 | 38762 ft | 531 kts | 137° |
| 2026-05-06 14:17 | 16.31181 | 15.47045 | 38761 ft | 531 kts | 137° |
| 2026-05-06 14:17 | 16.25725 | 15.52229 | 38761 ft | 531 kts | 137° |
| 2026-05-06 14:18 | 16.20269 | 15.57407 | 38760 ft | 531 kts | 137° |
| 2026-05-06 14:18 | 16.14810 | 15.62585 | 38753 ft | 531 kts | 137° |
| 2026-05-06 14:19 | 16.09348 | 15.67761 | 38749 ft | 531 kts | 136° |
| 2026-05-06 14:19 | 16.03897 | 15.72922 | 38751 ft | 529 kts | 136° |
| 2026-05-06 14:20 | 15.98452 | 15.78076 | 38752 ft | 529 kts | 136° |
| 2026-05-06 14:20 | 15.93004 | 15.83227 | 38751 ft | 529 kts | 136° |
| 2026-05-06 14:21 | 15.87558 | 15.88372 | 38747 ft | 529 kts | 137° |
| 2026-05-06 14:21 | 15.82110 | 15.93516 | 38746 ft | 529 kts | 137° |
| 2026-05-06 14:22 | 15.76656 | 15.98661 | 38746 ft | 529 kts | 137° |
| 2026-05-06 14:22 | 15.71208 | 16.03796 | 38740 ft | 528 kts | 136° |
| 2026-05-06 14:23 | 15.65772 | 16.08916 | 38746 ft | 527 kts | 136° |
| 2026-05-06 14:23 | 15.60376 | 16.13995 | 38747 ft | 527 kts | 136° |
| 2026-05-06 14:24 | 15.54944 | 16.19104 | 38742 ft | 527 kts | 136° |
| 2026-05-06 14:24 | 15.49511 | 16.24211 | 38741 ft | 527 kts | 136° |
| 2026-05-06 14:25 | 15.44076 | 16.29315 | 38736 ft | 527 kts | 136° |
| 2026-05-06 14:25 | 15.38639 | 16.34417 | 38736 ft | 527 kts | 136° |
| 2026-05-06 14:26 | 15.33206 | 16.39511 | 38735 ft | 525 kts | 136° |
| 2026-05-06 14:26 | 15.27794 | 16.44582 | 38733 ft | 525 kts | 136° |
| 2026-05-06 14:27 | 15.22381 | 16.49652 | 38731 ft | 525 kts | 136° |
| 2026-05-06 14:27 | 15.16967 | 16.54717 | 38733 ft | 525 kts | 136° |
| 2026-05-06 14:28 | 15.11554 | 16.59779 | 38729 ft | 525 kts | 136° |
| 2026-05-06 14:28 | 15.06134 | 16.64843 | 38726 ft | 525 kts | 136° |
| 2026-05-06 14:29 | 15.00718 | 16.69900 | 38720 ft | 525 kts | 136° |
| 2026-05-06 14:29 | 14.95311 | 16.74945 | 38723 ft | 522 kts | 136° |
| 2026-05-06 14:30 | 14.89923 | 16.79968 | 38726 ft | 521 kts | 136° |
| 2026-05-06 14:30 | 14.84570 | 16.84956 | 38715 ft | 521 kts | 136° |
| 2026-05-06 14:31 | 14.79185 | 16.89970 | 38715 ft | 521 kts | 136° |
| 2026-05-06 14:31 | 14.73792 | 16.94987 | 38716 ft | 521 kts | 136° |
| 2026-05-06 14:32 | 14.68407 | 16.99995 | 38711 ft | 521 kts | 136° |
| 2026-05-06 14:32 | 14.63016 | 17.05003 | 38714 ft | 521 kts | 136° |
| 2026-05-06 14:33 | 14.57637 | 17.09996 | 38709 ft | 519 kts | 136° |
| 2026-05-06 14:33 | 14.52273 | 17.14972 | 38708 ft | 518 kts | 136° |
| 2026-05-06 14:34 | 14.46907 | 17.19947 | 38701 ft | 518 kts | 136° |
| 2026-05-06 14:34 | 14.41543 | 17.24917 | 38696 ft | 518 kts | 136° |
| 2026-05-06 14:35 | 14.36177 | 17.29885 | 38697 ft | 518 kts | 136° |
| 2026-05-06 14:35 | 14.30811 | 17.34849 | 38699 ft | 518 kts | 136° |
| 2026-05-06 14:36 | 14.25442 | 17.39813 | 38695 ft | 518 kts | 136° |
| 2026-05-06 14:36 | 14.20099 | 17.44750 | 38690 ft | 515 kts | 137° |
| 2026-05-06 14:37 | 14.14771 | 17.49670 | 38688 ft | 514 kts | 137° |
| 2026-05-06 14:37 | 14.09449 | 17.54580 | 38689 ft | 514 kts | 137° |
| 2026-05-06 14:38 | 14.04124 | 17.59491 | 38689 ft | 514 kts | 137° |
| 2026-05-06 14:38 | 13.98794 | 17.64403 | 38690 ft | 514 kts | 137° |
| 2026-05-06 14:39 | 13.93463 | 17.69313 | 38684 ft | 514 kts | 137° |
| 2026-05-06 14:39 | 13.88170 | 17.74185 | 38684 ft | 514 kts | 137° |
| 2026-05-06 14:40 | 13.82849 | 17.79078 | 38677 ft | 511 kts | 137° |
| 2026-05-06 14:40 | 13.77558 | 17.83941 | 38676 ft | 510 kts | 137° |
| 2026-05-06 14:41 | 13.72268 | 17.88801 | 38684 ft | 510 kts | 137° |
| 2026-05-06 14:41 | 13.66979 | 17.93657 | 38678 ft | 510 kts | 137° |
| 2026-05-06 14:42 | 13.61686 | 17.98512 | 38676 ft | 510 kts | 137° |
| 2026-05-06 14:42 | 13.56394 | 18.03365 | 38679 ft | 510 kts | 137° |
| 2026-05-06 14:43 | 13.51101 | 18.08215 | 38672 ft | 509 kts | 137° |
| 2026-05-06 14:43 | 13.45822 | 18.13048 | 38674 ft | 508 kts | 137° |
| 2026-05-06 14:44 | 13.40543 | 18.17880 | 38674 ft | 508 kts | 137° |
| 2026-05-06 14:45 | 13.32630 | 18.25116 | 38669 ft | 508 kts | 137° |
| 2026-05-06 14:45 | 13.27352 | 18.29938 | 38669 ft | 508 kts | 137° |
| 2026-05-06 14:46 | 13.22075 | 18.34758 | 38666 ft | 508 kts | 137° |
| 2026-05-06 14:46 | 13.16793 | 18.39578 | 38661 ft | 508 kts | 137° |
| 2026-05-06 14:47 | 13.11518 | 18.44390 | 38666 ft | 506 kts | 138° |
| 2026-05-06 14:47 | 13.06311 | 18.49136 | 38670 ft | 503 kts | 138° |
| 2026-05-06 14:48 | 13.01090 | 18.53893 | 38663 ft | 502 kts | 138° |
| 2026-05-06 14:48 | 12.95865 | 18.58650 | 38671 ft | 502 kts | 138° |
| 2026-05-06 14:49 | 12.90639 | 18.63405 | 38663 ft | 502 kts | 138° |
| 2026-05-06 14:49 | 12.85417 | 18.68154 | 38663 ft | 502 kts | 138° |
| 2026-05-06 14:50 | 12.80187 | 18.72908 | 38659 ft | 502 kts | 139° |
| 2026-05-06 14:50 | 12.74966 | 18.77650 | 38666 ft | 501 kts | 139° |
| 2026-05-06 14:51 | 12.69766 | 18.82371 | 38665 ft | 498 kts | 139° |
| 2026-05-06 14:51 | 12.64588 | 18.87069 | 38672 ft | 497 kts | 139° |
| 2026-05-06 14:52 | 12.59411 | 18.91764 | 38672 ft | 497 kts | 139° |
| 2026-05-06 14:52 | 12.54232 | 18.96457 | 38672 ft | 497 kts | 139° |
| 2026-05-06 14:53 | 12.49055 | 19.01147 | 38683 ft | 497 kts | 139° |
| 2026-05-06 14:53 | 12.43875 | 19.05836 | 38683 ft | 497 kts | 139° |
| 2026-05-06 14:54 | 12.38735 | 19.10487 | 38681 ft | 495 kts | 139° |
| 2026-05-06 14:54 | 12.33582 | 19.15146 | 38688 ft | 493 kts | 140° |
| 2026-05-06 14:55 | 12.28459 | 19.19777 | 38690 ft | 490 kts | 140° |
| 2026-05-06 14:55 | 12.23349 | 19.24392 | 38688 ft | 490 kts | 140° |
| 2026-05-06 14:56 | 12.18237 | 19.29007 | 38688 ft | 490 kts | 140° |
| 2026-05-06 14:56 | 12.13121 | 19.33623 | 38688 ft | 490 kts | 140° |
| 2026-05-06 14:57 | 12.08870 | 19.37457 | 38688 ft | 490 kts | 140° |
| 2026-05-06 14:57 | 12.03759 | 19.42064 | 38686 ft | 490 kts | 140° |
| 2026-05-06 14:58 | 11.98655 | 19.46663 | 38690 ft | 489 kts | 140° |
| 2026-05-06 14:58 | 11.93543 | 19.51267 | 38689 ft | 490 kts | 140° |
| 2026-05-06 14:59 | 11.88433 | 19.55865 | 38692 ft | 490 kts | 140° |
| 2026-05-06 14:59 | 11.83318 | 19.60466 | 38692 ft | 490 kts | 140° |
| 2026-05-06 15:00 | 11.78206 | 19.65062 | 38689 ft | 490 kts | 140° |
| 2026-05-06 15:00 | 11.73092 | 19.69658 | 38694 ft | 490 kts | 140° |
| 2026-05-06 15:01 | 11.67976 | 19.74253 | 38693 ft | 490 kts | 140° |
| 2026-05-06 15:01 | 11.62891 | 19.78812 | 38692 ft | 490 kts | 140° |
| 2026-05-06 15:02 | 11.57755 | 19.83369 | 38691 ft | 489 kts | 141° |
| 2026-05-06 15:02 | 11.52624 | 19.87905 | 38687 ft | 488 kts | 141° |
| 2026-05-06 15:03 | 11.47499 | 19.92435 | 38695 ft | 488 kts | 141° |
| 2026-05-06 15:03 | 11.42374 | 19.96967 | 38691 ft | 488 kts | 141° |
| 2026-05-06 15:04 | 11.37248 | 20.01498 | 38694 ft | 488 kts | 141° |
| 2026-05-06 15:04 | 11.32124 | 20.06026 | 38684 ft | 488 kts | 141° |
| 2026-05-06 15:05 | 11.26996 | 20.10555 | 38694 ft | 488 kts | 141° |
| 2026-05-06 15:05 | 11.21869 | 20.15082 | 38691 ft | 488 kts | 142° |
| 2026-05-06 15:06 | 11.16776 | 20.19576 | 38689 ft | 488 kts | 142° |
| 2026-05-06 15:06 | 11.11644 | 20.24102 | 38692 ft | 488 kts | 142° |
| 2026-05-06 15:07 | 11.06514 | 20.28623 | 38691 ft | 488 kts | 142° |
| 2026-05-06 15:07 | 11.01381 | 20.33145 | 38694 ft | 488 kts | 142° |
| 2026-05-06 15:08 | 10.96246 | 20.37668 | 38677 ft | 488 kts | 142° |
| 2026-05-06 15:08 | 10.91116 | 20.42183 | 38691 ft | 488 kts | 142° |
| 2026-05-06 15:09 | 10.85984 | 20.46699 | 38694 ft | 487 kts | 142° |
| 2026-05-06 15:09 | 10.80864 | 20.51202 | 38691 ft | 485 kts | 142° |
| 2026-05-06 15:10 | 10.75764 | 20.55685 | 38691 ft | 484 kts | 142° |
| 2026-05-06 15:10 | 10.70669 | 20.60161 | 38697 ft | 484 kts | 142° |
| 2026-05-06 15:11 | 10.65575 | 20.64633 | 38694 ft | 484 kts | 142° |
| 2026-05-06 15:11 | 10.60477 | 20.69108 | 38694 ft | 484 kts | 142° |
| 2026-05-06 15:12 | 10.55382 | 20.73579 | 38699 ft | 483 kts | 143° |
| 2026-05-06 15:12 | 10.50298 | 20.78038 | 38699 ft | 482 kts | 143° |
| 2026-05-06 15:13 | 10.45221 | 20.82488 | 38699 ft | 483 kts | 143° |
| 2026-05-06 15:13 | 10.40128 | 20.86949 | 38701 ft | 484 kts | 143° |
| 2026-05-06 15:14 | 10.35026 | 20.91417 | 38692 ft | 484 kts | 143° |
| 2026-05-06 15:14 | 10.29928 | 20.95880 | 38700 ft | 484 kts | 143° |
| 2026-05-06 15:15 | 10.24826 | 21.00344 | 38699 ft | 484 kts | 143° |
| 2026-05-06 15:15 | 10.19762 | 21.04773 | 38696 ft | 484 kts | 143° |
| 2026-05-06 15:16 | 10.14660 | 21.09233 | 38698 ft | 484 kts | 143° |
| 2026-05-06 15:16 | 10.09555 | 21.13695 | 38699 ft | 484 kts | 143° |
| 2026-05-06 15:17 | 10.04452 | 21.18152 | 38698 ft | 485 kts | 143° |
| 2026-05-06 15:17 | 9.99335 | 21.22619 | 38704 ft | 485 kts | 143° |
| 2026-05-06 15:18 | 9.94217 | 21.27086 | 38706 ft | 485 kts | 143° |
| 2026-05-06 15:18 | 9.89100 | 21.31550 | 38702 ft | 485 kts | 143° |
| 2026-05-06 15:19 | 9.83979 | 21.36015 | 38710 ft | 486 kts | 142° |
| 2026-05-06 15:19 | 9.78852 | 21.40483 | 38700 ft | 487 kts | 142° |
| 2026-05-06 15:20 | 9.73715 | 21.44959 | 38705 ft | 487 kts | 142° |
| 2026-05-06 15:20 | 9.68581 | 21.49431 | 38710 ft | 487 kts | 142° |
| 2026-05-06 15:21 | 9.63442 | 21.53904 | 38720 ft | 487 kts | 142° |
| 2026-05-06 15:21 | 9.58307 | 21.58372 | 38707 ft | 486 kts | 142° |
| 2026-05-06 15:22 | 9.53208 | 21.62810 | 38720 ft | 486 kts | 142° |
| 2026-05-06 15:22 | 9.48122 | 21.67331 | 38720 ft | 486 kts | 141° |
| 2026-05-06 15:23 | 9.43091 | 21.71864 | 38720 ft | 482 kts | 141° |
| 2026-05-06 15:23 | 9.38087 | 21.76369 | 38727 ft | 481 kts | 141° |
| 2026-05-06 15:24 | 9.33079 | 21.80865 | 38737 ft | 481 kts | 141° |
| 2026-05-06 15:24 | 9.28058 | 21.85364 | 38741 ft | 483 kts | 141° |
| 2026-05-06 15:25 | 9.23026 | 21.89872 | 38748 ft | 483 kts | 141° |
| 2026-05-06 15:25 | 9.17994 | 21.94379 | 38741 ft | 483 kts | 141° |
| 2026-05-06 15:26 | 9.12961 | 21.98885 | 38738 ft | 483 kts | 141° |
| 2026-05-06 15:26 | 9.07941 | 22.03377 | 38755 ft | 481 kts | 141° |
| 2026-05-06 15:27 | 9.02935 | 22.07856 | 38750 ft | 480 kts | 141° |
| 2026-05-06 15:27 | 8.97934 | 22.12328 | 38762 ft | 480 kts | 141° |
| 2026-05-06 15:28 | 8.92941 | 22.16791 | 38758 ft | 478 kts | 141° |
| 2026-05-06 15:28 | 8.87959 | 22.21243 | 38761 ft | 478 kts | 141° |
| 2026-05-06 15:29 | 8.82977 | 22.25693 | 38771 ft | 478 kts | 141° |
| 2026-05-06 15:29 | 8.77994 | 22.30143 | 38773 ft | 478 kts | 141° |
| 2026-05-06 15:30 | 8.73007 | 22.34593 | 38768 ft | 480 kts | 140° |
| 2026-05-06 15:30 | 8.67994 | 22.39065 | 38786 ft | 481 kts | 140° |
| 2026-05-06 15:31 | 8.63007 | 22.43514 | 38788 ft | 481 kts | 140° |
| 2026-05-06 15:31 | 8.57993 | 22.47985 | 38785 ft | 481 kts | 140° |
| 2026-05-06 15:32 | 8.50475 | 22.54685 | 38796 ft | 480 kts | 140° |
| 2026-05-06 15:32 | 8.45466 | 22.59146 | 38791 ft | 480 kts | 140° |
| 2026-05-06 15:33 | 8.40458 | 22.63606 | 38795 ft | 480 kts | 140° |
| 2026-05-06 15:33 | 8.35452 | 22.68063 | 38795 ft | 479 kts | 141° |
| 2026-05-06 15:34 | 8.30453 | 22.72511 | 38787 ft | 479 kts | 141° |
| 2026-05-06 15:34 | 8.25453 | 22.76958 | 38790 ft | 479 kts | 141° |
| 2026-05-06 15:35 | 8.20453 | 22.81403 | 38784 ft | 479 kts | 141° |
| 2026-05-06 15:35 | 8.15568 | 22.85996 | 38781 ft | 481 kts | 135° |
| 2026-05-06 15:36 | 8.11046 | 22.90977 | 38777 ft | 482 kts | 134° |
| 2026-05-06 15:36 | 8.06600 | 22.96030 | 38775 ft | 482 kts | 134° |
| 2026-05-06 15:37 | 8.02161 | 23.01095 | 38769 ft | 481 kts | 134° |
| 2026-05-06 15:37 | 7.97723 | 23.06144 | 38771 ft | 480 kts | 134° |
| 2026-05-06 15:38 | 7.93289 | 23.11175 | 38771 ft | 480 kts | 134° |
| 2026-05-06 15:38 | 7.88855 | 23.16201 | 38772 ft | 479 kts | 134° |
| 2026-05-06 15:39 | 7.84426 | 23.21221 | 38772 ft | 479 kts | 134° |
| 2026-05-06 15:39 | 7.80002 | 23.26233 | 38773 ft | 478 kts | 134° |
| 2026-05-06 15:40 | 7.75576 | 23.31246 | 38776 ft | 478 kts | 134° |
| 2026-05-06 15:40 | 7.71180 | 23.36223 | 38777 ft | 478 kts | 134° |
| 2026-05-06 15:41 | 7.66754 | 23.41233 | 38780 ft | 478 kts | 134° |
| 2026-05-06 15:41 | 7.62332 | 23.46236 | 38782 ft | 477 kts | 133° |
| 2026-05-06 15:42 | 7.57918 | 23.51230 | 38787 ft | 477 kts | 133° |
| 2026-05-06 15:42 | 7.53506 | 23.56218 | 38787 ft | 477 kts | 133° |
| 2026-05-06 15:43 | 7.49090 | 23.61210 | 38794 ft | 477 kts | 133° |
| 2026-05-06 15:43 | 7.44677 | 23.66197 | 38793 ft | 477 kts | 133° |
| 2026-05-06 15:44 | 7.40260 | 23.71185 | 38791 ft | 477 kts | 133° |
| 2026-05-06 15:44 | 7.35844 | 23.76171 | 38803 ft | 476 kts | 133° |
| 2026-05-06 15:45 | 7.31452 | 23.81129 | 38798 ft | 473 kts | 133° |
| 2026-05-06 15:45 | 7.27085 | 23.86057 | 38801 ft | 470 kts | 133° |
| 2026-05-06 15:46 | 7.22751 | 23.90946 | 38803 ft | 466 kts | 133° |
| 2026-05-06 15:46 | 7.18432 | 23.95816 | 38807 ft | 466 kts | 133° |
| 2026-05-06 15:47 | 7.14838 | 23.99868 | 38807 ft | 466 kts | 133° |
| 2026-05-06 15:47 | 7.10517 | 24.04737 | 38809 ft | 466 kts | 133° |
| 2026-05-06 15:48 | 7.06194 | 24.09607 | 38813 ft | 466 kts | 133° |
| 2026-05-06 15:48 | 7.01874 | 24.14473 | 38813 ft | 466 kts | 133° |
| 2026-05-06 15:49 | 6.97553 | 24.19339 | 38812 ft | 466 kts | 133° |
| 2026-05-06 15:49 | 6.93233 | 24.24202 | 38812 ft | 466 kts | 133° |
| 2026-05-06 15:50 | 6.88914 | 24.29062 | 38820 ft | 465 kts | 133° |
| 2026-05-06 15:50 | 6.84602 | 24.33914 | 38820 ft | 465 kts | 133° |
| 2026-05-06 15:51 | 6.80291 | 24.38761 | 38821 ft | 465 kts | 133° |
| 2026-05-06 15:51 | 6.75991 | 24.43596 | 38820 ft | 463 kts | 133° |
| 2026-05-06 15:52 | 6.71701 | 24.48419 | 38820 ft | 462 kts | 133° |
| 2026-05-06 15:52 | 6.67440 | 24.53206 | 38820 ft | 462 kts | 133° |
| 2026-05-06 15:53 | 6.63154 | 24.58021 | 38826 ft | 462 kts | 133° |
| 2026-05-06 15:53 | 6.58866 | 24.62836 | 38826 ft | 462 kts | 133° |
| 2026-05-06 15:54 | 6.54572 | 24.67657 | 38827 ft | 462 kts | 133° |
| 2026-05-06 15:54 | 6.50283 | 24.72472 | 38827 ft | 462 kts | 133° |
| 2026-05-06 15:55 | 6.45995 | 24.77283 | 38826 ft | 462 kts | 133° |
| 2026-05-06 15:55 | 6.41703 | 24.82099 | 38827 ft | 462 kts | 133° |
| 2026-05-06 15:56 | 6.37414 | 24.86908 | 38828 ft | 462 kts | 133° |
| 2026-05-06 15:56 | 6.33121 | 24.91722 | 38830 ft | 462 kts | 133° |
| 2026-05-06 15:57 | 6.28830 | 24.96531 | 38829 ft | 462 kts | 133° |
| 2026-05-06 15:57 | 6.24540 | 25.01339 | 38834 ft | 462 kts | 133° |
| 2026-05-06 15:58 | 6.20244 | 25.06151 | 38823 ft | 462 kts | 132° |
| 2026-05-06 15:58 | 6.15967 | 25.10940 | 38828 ft | 464 kts | 132° |
| 2026-05-06 15:59 | 6.11619 | 25.15809 | 38829 ft | 465 kts | 132° |
| 2026-05-06 15:59 | 6.07329 | 25.20612 | 38828 ft | 465 kts | 132° |
| 2026-05-06 16:00 | 6.03011 | 25.25445 | 38832 ft | 465 kts | 132° |
| 2026-05-06 16:00 | 5.98692 | 25.30277 | 38831 ft | 465 kts | 132° |
| 2026-05-06 16:01 | 5.94374 | 25.35106 | 38831 ft | 465 kts | 132° |
| 2026-05-06 16:01 | 5.90046 | 25.39947 | 38829 ft | 466 kts | 132° |
| 2026-05-06 16:02 | 5.85718 | 25.44784 | 38828 ft | 465 kts | 132° |
| 2026-05-06 16:02 | 5.81385 | 25.49628 | 38831 ft | 467 kts | 132° |
| 2026-05-06 16:03 | 5.77033 | 25.54490 | 38828 ft | 469 kts | 132° |
| 2026-05-06 16:03 | 5.72676 | 25.59358 | 38823 ft | 469 kts | 132° |
| 2026-05-06 16:04 | 5.68321 | 25.64222 | 38819 ft | 468 kts | 132° |
| 2026-05-06 16:04 | 5.63966 | 25.69084 | 38823 ft | 469 kts | 132° |
| 2026-05-06 16:05 | 5.59605 | 25.73953 | 38823 ft | 470 kts | 132° |
| 2026-05-06 16:05 | 5.55236 | 25.78829 | 38830 ft | 469 kts | 132° |
| 2026-05-06 16:06 | 5.50872 | 25.83699 | 38828 ft | 469 kts | 132° |
| 2026-05-06 16:06 | 5.46510 | 25.88565 | 38823 ft | 469 kts | 132° |
| 2026-05-06 16:07 | 5.42140 | 25.93439 | 38827 ft | 470 kts | 132° |
| 2026-05-06 16:07 | 5.37762 | 25.98320 | 38826 ft | 470 kts | 132° |
| 2026-05-06 16:08 | 5.33390 | 26.03195 | 38823 ft | 469 kts | 132° |
| 2026-05-06 16:08 | 5.29025 | 26.08059 | 38823 ft | 469 kts | 132° |
| 2026-05-06 16:09 | 5.24656 | 26.12930 | 38837 ft | 470 kts | 132° |
| 2026-05-06 16:09 | 5.20318 | 26.17779 | 38825 ft | 470 kts | 132° |
| 2026-05-06 16:10 | 5.15950 | 26.22664 | 38826 ft | 470 kts | 132° |
| 2026-05-06 16:10 | 5.11592 | 26.27537 | 38841 ft | 469 kts | 132° |
| 2026-05-06 16:11 | 5.07246 | 26.32395 | 38825 ft | 467 kts | 132° |
| 2026-05-06 16:11 | 5.02905 | 26.37246 | 38827 ft | 468 kts | 132° |
| 2026-05-06 16:12 | 4.98565 | 26.42093 | 38841 ft | 467 kts | 132° |
| 2026-05-06 16:12 | 4.94232 | 26.46932 | 38841 ft | 466 kts | 132° |
| 2026-05-06 16:13 | 4.89896 | 26.51774 | 38829 ft | 466 kts | 132° |
| 2026-05-06 16:13 | 4.85560 | 26.56615 | 38839 ft | 467 kts | 132° |
| 2026-05-06 16:14 | 4.81220 | 26.61459 | 38830 ft | 466 kts | 132° |
| 2026-05-06 16:14 | 4.76893 | 26.66287 | 38845 ft | 464 kts | 132° |
| 2026-05-06 16:15 | 4.72565 | 26.71116 | 38836 ft | 469 kts | 131° |
| 2026-05-06 16:15 | 4.68193 | 26.75993 | 38834 ft | 471 kts | 131° |
| 2026-05-06 16:16 | 4.63837 | 26.80851 | 38834 ft | 471 kts | 131° |
| 2026-05-06 16:16 | 4.59455 | 26.85737 | 38831 ft | 471 kts | 131° |
| 2026-05-06 16:17 | 4.55044 | 26.90654 | 38837 ft | 473 kts | 131° |
| 2026-05-06 16:17 | 4.50637 | 26.95566 | 38834 ft | 474 kts | 131° |
| 2026-05-06 16:18 | 4.46256 | 27.00448 | 38833 ft | 474 kts | 131° |
| 2026-05-06 16:18 | 4.41844 | 27.05363 | 38830 ft | 474 kts | 131° |
| 2026-05-06 16:19 | 4.37420 | 27.10292 | 38833 ft | 477 kts | 132° |
| 2026-05-06 16:19 | 4.32969 | 27.15248 | 38826 ft | 479 kts | 132° |
| 2026-05-06 16:20 | 4.28512 | 27.20212 | 38826 ft | 479 kts | 132° |
| 2026-05-06 16:20 | 4.24055 | 27.25173 | 38826 ft | 479 kts | 132° |
| 2026-05-06 16:21 | 4.19591 | 27.30142 | 38818 ft | 480 kts | 132° |
| 2026-05-06 16:21 | 4.15125 | 27.35112 | 38821 ft | 480 kts | 132° |
| 2026-05-06 16:22 | 4.10663 | 27.40077 | 38823 ft | 479 kts | 132° |
| 2026-05-06 16:22 | 4.06200 | 27.45042 | 38824 ft | 479 kts | 132° |
| 2026-05-06 16:23 | 4.01739 | 27.50004 | 38814 ft | 480 kts | 132° |
| 2026-05-06 16:23 | 3.97266 | 27.54978 | 38816 ft | 481 kts | 132° |
| 2026-05-06 16:24 | 3.92792 | 27.59952 | 38819 ft | 480 kts | 132° |
| 2026-05-06 16:24 | 3.88325 | 27.64918 | 38813 ft | 480 kts | 132° |
| 2026-05-06 16:25 | 3.83855 | 27.69887 | 38813 ft | 480 kts | 132° |
| 2026-05-06 16:25 | 3.79378 | 27.74862 | 38820 ft | 481 kts | 132° |
| 2026-05-06 16:26 | 3.74903 | 27.79834 | 38818 ft | 480 kts | 132° |
| 2026-05-06 16:26 | 3.70431 | 27.84802 | 38817 ft | 479 kts | 132° |
| 2026-05-06 16:27 | 3.65966 | 27.89761 | 38822 ft | 480 kts | 132° |
| 2026-05-06 16:27 | 3.61496 | 27.94726 | 38819 ft | 480 kts | 132° |
| 2026-05-06 16:28 | 3.57057 | 27.99655 | 38817 ft | 480 kts | 132° |
| 2026-05-06 16:28 | 3.52584 | 28.04621 | 38819 ft | 480 kts | 132° |
| 2026-05-06 16:29 | 3.48114 | 28.09584 | 38816 ft | 480 kts | 132° |
| 2026-05-06 16:29 | 3.43636 | 28.14553 | 38819 ft | 481 kts | 132° |
| 2026-05-06 16:30 | 3.39890 | 28.18710 | 38822 ft | 481 kts | 132° |
| 2026-05-06 16:30 | 3.34678 | 28.24493 | 38820 ft | 481 kts | 132° |
| 2026-05-06 16:31 | 3.30199 | 28.29462 | 38818 ft | 481 kts | 133° |
| 2026-05-06 16:31 | 3.25717 | 28.34434 | 38818 ft | 481 kts | 133° |
| 2026-05-06 16:32 | 3.21232 | 28.39407 | 38821 ft | 481 kts | 133° |
| 2026-05-06 16:32 | 3.16744 | 28.44385 | 38823 ft | 482 kts | 133° |
| 2026-05-06 16:33 | 3.12255 | 28.49362 | 38825 ft | 482 kts | 133° |
| 2026-05-06 16:34 | 3.05521 | 28.56827 | 38822 ft | 482 kts | 133° |
| 2026-05-06 16:34 | 3.01029 | 28.61806 | 38825 ft | 482 kts | 133° |
| 2026-05-06 16:35 | 2.96538 | 28.66783 | 38826 ft | 482 kts | 132° |
| 2026-05-06 16:35 | 2.92047 | 28.71760 | 38818 ft | 482 kts | 132° |
| 2026-05-06 16:36 | 2.88317 | 28.75892 | 38810 ft | 482 kts | 132° |
| 2026-05-06 16:36 | 2.83827 | 28.80867 | 38825 ft | 482 kts | 132° |
| 2026-05-06 16:37 | 2.79336 | 28.85843 | 38804 ft | 482 kts | 132° |
| 2026-05-06 16:37 | 2.74843 | 28.90821 | 38822 ft | 482 kts | 132° |
| 2026-05-06 16:38 | 2.70347 | 28.95801 | 38828 ft | 482 kts | 133° |
| 2026-05-06 16:38 | 2.65858 | 29.00773 | 38803 ft | 482 kts | 133° |
| 2026-05-06 16:39 | 2.61398 | 29.05712 | 38823 ft | 482 kts | 133° |
| 2026-05-06 16:39 | 2.56908 | 29.10684 | 38807 ft | 482 kts | 133° |
| 2026-05-06 16:40 | 2.52415 | 29.15659 | 38821 ft | 482 kts | 133° |
| 2026-05-06 16:40 | 2.47926 | 29.20629 | 38806 ft | 482 kts | 133° |
| 2026-05-06 16:41 | 2.43435 | 29.25600 | 38821 ft | 482 kts | 133° |
| 2026-05-06 16:41 | 2.38943 | 29.30572 | 38810 ft | 482 kts | 133° |
| 2026-05-06 16:42 | 2.34449 | 29.35545 | 38813 ft | 482 kts | 133° |
| 2026-05-06 16:42 | 2.29959 | 29.40513 | 38825 ft | 481 kts | 133° |
| 2026-05-06 16:43 | 2.25477 | 29.45473 | 38813 ft | 480 kts | 133° |
| 2026-05-06 16:43 | 2.20996 | 29.50433 | 38830 ft | 480 kts | 133° |
| 2026-05-06 16:44 | 2.16524 | 29.55392 | 38816 ft | 480 kts | 133° |
| 2026-05-06 16:44 | 2.12047 | 29.60358 | 38831 ft | 481 kts | 133° |
| 2026-05-06 16:45 | 2.07569 | 29.65326 | 38819 ft | 481 kts | 133° |
| 2026-05-06 16:45 | 2.03091 | 29.70292 | 38835 ft | 481 kts | 133° |
| 2026-05-06 16:46 | 1.98614 | 29.75258 | 38824 ft | 481 kts | 133° |
| 2026-05-06 16:46 | 1.94143 | 29.80228 | 38821 ft | 480 kts | 133° |
| 2026-05-06 16:47 | 1.89697 | 29.85203 | 38843 ft | 480 kts | 132° |
| 2026-05-06 16:47 | 1.85294 | 29.90217 | 38826 ft | 480 kts | 131° |
| 2026-05-06 16:48 | 1.80900 | 29.95239 | 38856 ft | 480 kts | 132° |
| 2026-05-06 16:48 | 1.76496 | 30.00263 | 38857 ft | 480 kts | 132° |
| 2026-05-06 16:49 | 1.72093 | 30.05278 | 38840 ft | 480 kts | 132° |
| 2026-05-06 16:49 | 1.67722 | 30.10255 | 38860 ft | 480 kts | 132° |
| 2026-05-06 16:50 | 1.63314 | 30.15274 | 38843 ft | 480 kts | 131° |
| 2026-05-06 16:50 | 1.58916 | 30.20282 | 38851 ft | 479 kts | 132° |
| 2026-05-06 16:51 | 1.54807 | 30.25510 | 38855 ft | 479 kts | 126° |
| 2026-05-06 16:51 | 1.50947 | 30.30946 | 38852 ft | 480 kts | 126° |
| 2026-05-06 16:52 | 1.47132 | 30.36420 | 38838 ft | 480 kts | 125° |
| 2026-05-06 16:52 | 1.43323 | 30.41890 | 38827 ft | 479 kts | 125° |
| 2026-05-06 16:53 | 1.39509 | 30.47351 | 38820 ft | 480 kts | 126° |
| 2026-05-06 16:53 | 1.35688 | 30.52815 | 38805 ft | 479 kts | 126° |
| 2026-05-06 16:54 | 1.31873 | 30.58268 | 38821 ft | 479 kts | 125° |
| 2026-05-06 16:54 | 1.28062 | 30.63716 | 38822 ft | 478 kts | 126° |
| 2026-05-06 16:55 | 1.24284 | 30.69175 | 38833 ft | 477 kts | 125° |
| 2026-05-06 16:55 | 1.20553 | 30.74650 | 38825 ft | 477 kts | 124° |
| 2026-05-06 16:56 | 1.16824 | 30.80130 | 38843 ft | 477 kts | 125° |
| 2026-05-06 16:56 | 1.13087 | 30.85613 | 38855 ft | 477 kts | 125° |
| 2026-05-06 16:57 | 1.09354 | 30.91082 | 38848 ft | 477 kts | 125° |
| 2026-05-06 16:57 | 1.05616 | 30.96557 | 38859 ft | 477 kts | 125° |
| 2026-05-06 16:58 | 1.01878 | 31.02032 | 38880 ft | 476 kts | 125° |
| 2026-05-06 16:58 | 0.98171 | 31.07463 | 38866 ft | 476 kts | 125° |
| 2026-05-06 16:59 | 0.94433 | 31.12936 | 38888 ft | 477 kts | 125° |
| 2026-05-06 16:59 | 0.90691 | 31.18417 | 38900 ft | 477 kts | 125° |
| 2026-05-06 17:00 | 0.86955 | 31.23889 | 38901 ft | 477 kts | 125° |
| 2026-05-06 17:00 | 0.83216 | 31.29366 | 38886 ft | 476 kts | 125° |
| 2026-05-06 17:01 | 0.79487 | 31.34826 | 38891 ft | 475 kts | 125° |
| 2026-05-06 17:01 | 0.75759 | 31.40286 | 38898 ft | 476 kts | 125° |
| 2026-05-06 17:02 | 0.72030 | 31.45747 | 38900 ft | 476 kts | 125° |
| 2026-05-06 17:02 | 0.68302 | 31.51206 | 38900 ft | 475 kts | 125° |
| 2026-05-06 17:03 | 0.64575 | 31.56671 | 38909 ft | 477 kts | 124° |
| 2026-05-06 17:03 | 0.60847 | 31.62160 | 38909 ft | 477 kts | 124° |
| 2026-05-06 17:04 | 0.57128 | 31.67640 | 38907 ft | 477 kts | 124° |
| 2026-05-06 17:04 | 0.53405 | 31.73124 | 38904 ft | 477 kts | 124° |
| 2026-05-06 17:05 | 0.49679 | 31.78609 | 38914 ft | 477 kts | 124° |
| 2026-05-06 17:05 | 0.45956 | 31.84091 | 38914 ft | 477 kts | 124° |
| 2026-05-06 17:06 | 0.42226 | 31.89582 | 38909 ft | 478 kts | 124° |
| 2026-05-06 17:06 | 0.38518 | 31.95042 | 38912 ft | 478 kts | 124° |
| 2026-05-06 17:07 | 0.34774 | 32.00553 | 38921 ft | 482 kts | 124° |
| 2026-05-06 17:07 | 0.31000 | 32.06103 | 38921 ft | 483 kts | 124° |
| 2026-05-06 17:08 | 0.27223 | 32.11641 | 38915 ft | 481 kts | 124° |
| 2026-05-06 17:08 | 0.23452 | 32.17166 | 38927 ft | 481 kts | 124° |
| 2026-05-06 17:09 | 0.19682 | 32.22690 | 38954 ft | 481 kts | 124° |
| 2026-05-06 17:09 | 0.15911 | 32.28217 | 38982 ft | 481 kts | 124° |
| 2026-05-06 17:10 | 0.12139 | 32.33746 | 39003 ft | 481 kts | 124° |
| 2026-05-06 17:10 | 0.08368 | 32.39275 | 39020 ft | 482 kts | 124° |
| 2026-05-06 17:11 | 0.05061 | 32.45095 | 39020 ft | 482 kts | 111° |
| 2026-05-06 17:11 | 0.02849 | 32.51425 | 39022 ft | 483 kts | 108° |
| 2026-05-06 17:12 | 0.00875 | 32.57794 | 39001 ft | 483 kts | 107° |
| 2026-05-06 17:12 | -0.01079 | 32.64215 | 38918 ft | 483 kts | 107° |
| 2026-05-06 17:13 | -0.03054 | 32.70635 | 38911 ft | 483 kts | 107° |